<?xml version="1.0" encoding="UTF-8" standalone="no" ?>
<gpx xmlns="http://www.topografix.com/GPX/1/1" xmlns:xsi="http://www.w3.org/2001/XMLSchema-instance" xsi:schemaLocation="http://www.topografix.com/GPX/1/1 http://www.topografix.com/GPX/1/1/gpx.xsd" version="1.1" creator="VisuGPX - https://www.visugpx.com">
  <metadata>
    <name>saint_cricq</name>
  </metadata>
  <trk>
    <name><![CDATA[saint_cricq]]></name>
    <trkseg>
      <trkpt lat="43.68251" lon="0.99369">
        <ele>203.1</ele>
        <time>2017-08-06T11:35:55Z</time>
      </trkpt>
      <trkpt lat="43.6826" lon="0.99368">
        <ele>203</ele>
        <time>2017-08-06T11:36:04Z</time>
      </trkpt>
      <trkpt lat="43.6827" lon="0.99378">
        <ele>203.4</ele>
        <time>2017-08-06T11:36:19Z</time>
      </trkpt>
      <trkpt lat="43.68279" lon="0.99385">
        <ele>203.6</ele>
        <time>2017-08-06T11:36:29Z</time>
      </trkpt>
      <trkpt lat="43.68289" lon="0.99392">
        <ele>203.4</ele>
        <time>2017-08-06T11:36:40Z</time>
      </trkpt>
      <trkpt lat="43.68298" lon="0.994">
        <ele>203.1</ele>
        <time>2017-08-06T11:36:50Z</time>
      </trkpt>
      <trkpt lat="43.68309" lon="0.99406">
        <ele>202.3</ele>
        <time>2017-08-06T11:36:59Z</time>
      </trkpt>
      <trkpt lat="43.68319" lon="0.99403">
        <ele>200.9</ele>
        <time>2017-08-06T11:37:10Z</time>
      </trkpt>
      <trkpt lat="43.68326" lon="0.99394">
        <ele>200.4</ele>
        <time>2017-08-06T11:37:19Z</time>
      </trkpt>
      <trkpt lat="43.68333" lon="0.9938">
        <ele>200.5</ele>
        <time>2017-08-06T11:37:30Z</time>
      </trkpt>
      <trkpt lat="43.68339" lon="0.99366">
        <ele>200.4</ele>
        <time>2017-08-06T11:37:40Z</time>
      </trkpt>
      <trkpt lat="43.68347" lon="0.99353">
        <ele>200.3</ele>
        <time>2017-08-06T11:37:49Z</time>
      </trkpt>
      <trkpt lat="43.68355" lon="0.99343">
        <ele>200.1</ele>
        <time>2017-08-06T11:37:58Z</time>
      </trkpt>
      <trkpt lat="43.68361" lon="0.99331">
        <ele>199.6</ele>
        <time>2017-08-06T11:38:06Z</time>
      </trkpt>
      <trkpt lat="43.68368" lon="0.9932">
        <ele>199</ele>
        <time>2017-08-06T11:38:15Z</time>
      </trkpt>
      <trkpt lat="43.68374" lon="0.99309">
        <ele>198.8</ele>
        <time>2017-08-06T11:38:24Z</time>
      </trkpt>
      <trkpt lat="43.68381" lon="0.99295">
        <ele>198.3</ele>
        <time>2017-08-06T11:38:33Z</time>
      </trkpt>
      <trkpt lat="43.68388" lon="0.9928">
        <ele>197.2</ele>
        <time>2017-08-06T11:38:44Z</time>
      </trkpt>
      <trkpt lat="43.68394" lon="0.99274">
        <ele>196.8</ele>
        <time>2017-08-06T11:39:07Z</time>
      </trkpt>
      <trkpt lat="43.68404" lon="0.99271">
        <ele>196.4</ele>
        <time>2017-08-06T11:39:27Z</time>
      </trkpt>
      <trkpt lat="43.68409" lon="0.9928">
        <ele>195.6</ele>
        <time>2017-08-06T11:39:46Z</time>
      </trkpt>
      <trkpt lat="43.68416" lon="0.99287">
        <ele>194.3</ele>
        <time>2017-08-06T11:39:54Z</time>
      </trkpt>
      <trkpt lat="43.68423" lon="0.99296">
        <ele>193.2</ele>
        <time>2017-08-06T11:40:02Z</time>
      </trkpt>
      <trkpt lat="43.6843" lon="0.99306">
        <ele>192.3</ele>
        <time>2017-08-06T11:40:10Z</time>
      </trkpt>
      <trkpt lat="43.68437" lon="0.99315">
        <ele>191.8</ele>
        <time>2017-08-06T11:40:17Z</time>
      </trkpt>
      <trkpt lat="43.68445" lon="0.99322">
        <ele>191.3</ele>
        <time>2017-08-06T11:40:24Z</time>
      </trkpt>
      <trkpt lat="43.68454" lon="0.99328">
        <ele>190.7</ele>
        <time>2017-08-06T11:40:31Z</time>
      </trkpt>
      <trkpt lat="43.68462" lon="0.99336">
        <ele>190.1</ele>
        <time>2017-08-06T11:40:38Z</time>
      </trkpt>
      <trkpt lat="43.6847" lon="0.99343">
        <ele>189.5</ele>
        <time>2017-08-06T11:40:45Z</time>
      </trkpt>
      <trkpt lat="43.68478" lon="0.99351">
        <ele>188.8</ele>
        <time>2017-08-06T11:40:53Z</time>
      </trkpt>
      <trkpt lat="43.68488" lon="0.99357">
        <ele>188.4</ele>
        <time>2017-08-06T11:41:01Z</time>
      </trkpt>
      <trkpt lat="43.68498" lon="0.9936">
        <ele>187.9</ele>
        <time>2017-08-06T11:41:07Z</time>
      </trkpt>
      <trkpt lat="43.68507" lon="0.99364">
        <ele>187.4</ele>
        <time>2017-08-06T11:41:14Z</time>
      </trkpt>
      <trkpt lat="43.68516" lon="0.99368">
        <ele>186.9</ele>
        <time>2017-08-06T11:41:22Z</time>
      </trkpt>
      <trkpt lat="43.68526" lon="0.99372">
        <ele>186.3</ele>
        <time>2017-08-06T11:41:31Z</time>
      </trkpt>
      <trkpt lat="43.68537" lon="0.99372">
        <ele>185.7</ele>
        <time>2017-08-06T11:41:39Z</time>
      </trkpt>
      <trkpt lat="43.68547" lon="0.99372">
        <ele>185.3</ele>
        <time>2017-08-06T11:41:46Z</time>
      </trkpt>
      <trkpt lat="43.68557" lon="0.99373">
        <ele>184.9</ele>
        <time>2017-08-06T11:41:53Z</time>
      </trkpt>
      <trkpt lat="43.68566" lon="0.99377">
        <ele>183.9</ele>
        <time>2017-08-06T11:42:01Z</time>
      </trkpt>
      <trkpt lat="43.68576" lon="0.9938">
        <ele>183.5</ele>
        <time>2017-08-06T11:42:08Z</time>
      </trkpt>
      <trkpt lat="43.68584" lon="0.99385">
        <ele>182.9</ele>
        <time>2017-08-06T11:42:14Z</time>
      </trkpt>
      <trkpt lat="43.68592" lon="0.99389">
        <ele>182.3</ele>
        <time>2017-08-06T11:42:21Z</time>
      </trkpt>
      <trkpt lat="43.68601" lon="0.99392">
        <ele>181.5</ele>
        <time>2017-08-06T11:42:29Z</time>
      </trkpt>
      <trkpt lat="43.68611" lon="0.99398">
        <ele>180.7</ele>
        <time>2017-08-06T11:42:37Z</time>
      </trkpt>
      <trkpt lat="43.68622" lon="0.99404">
        <ele>180</ele>
        <time>2017-08-06T11:42:45Z</time>
      </trkpt>
      <trkpt lat="43.68631" lon="0.99407">
        <ele>179.3</ele>
        <time>2017-08-06T11:42:53Z</time>
      </trkpt>
      <trkpt lat="43.68641" lon="0.99412">
        <ele>178.8</ele>
        <time>2017-08-06T11:43:01Z</time>
      </trkpt>
      <trkpt lat="43.68651" lon="0.99417">
        <ele>178.6</ele>
        <time>2017-08-06T11:43:08Z</time>
      </trkpt>
      <trkpt lat="43.6866" lon="0.99424">
        <ele>178.1</ele>
        <time>2017-08-06T11:43:15Z</time>
      </trkpt>
      <trkpt lat="43.68669" lon="0.99428">
        <ele>177.6</ele>
        <time>2017-08-06T11:43:22Z</time>
      </trkpt>
      <trkpt lat="43.68677" lon="0.99433">
        <ele>177.4</ele>
        <time>2017-08-06T11:43:29Z</time>
      </trkpt>
      <trkpt lat="43.68686" lon="0.99437">
        <ele>176.8</ele>
        <time>2017-08-06T11:43:36Z</time>
      </trkpt>
      <trkpt lat="43.68695" lon="0.99441">
        <ele>176.1</ele>
        <time>2017-08-06T11:43:43Z</time>
      </trkpt>
      <trkpt lat="43.68705" lon="0.99444">
        <ele>175.4</ele>
        <time>2017-08-06T11:43:50Z</time>
      </trkpt>
      <trkpt lat="43.68713" lon="0.99448">
        <ele>174.8</ele>
        <time>2017-08-06T11:43:57Z</time>
      </trkpt>
      <trkpt lat="43.68722" lon="0.99452">
        <ele>174.2</ele>
        <time>2017-08-06T11:44:04Z</time>
      </trkpt>
      <trkpt lat="43.68731" lon="0.99455">
        <ele>173.6</ele>
        <time>2017-08-06T11:44:11Z</time>
      </trkpt>
      <trkpt lat="43.68741" lon="0.99459">
        <ele>173.1</ele>
        <time>2017-08-06T11:44:19Z</time>
      </trkpt>
      <trkpt lat="43.6875" lon="0.99465">
        <ele>172.2</ele>
        <time>2017-08-06T11:44:27Z</time>
      </trkpt>
      <trkpt lat="43.68759" lon="0.99471">
        <ele>171.3</ele>
        <time>2017-08-06T11:44:34Z</time>
      </trkpt>
      <trkpt lat="43.68768" lon="0.99476">
        <ele>170.6</ele>
        <time>2017-08-06T11:44:42Z</time>
      </trkpt>
      <trkpt lat="43.6878" lon="0.99481">
        <ele>169.9</ele>
        <time>2017-08-06T11:44:50Z</time>
      </trkpt>
      <trkpt lat="43.68789" lon="0.99485">
        <ele>169.7</ele>
        <time>2017-08-06T11:44:57Z</time>
      </trkpt>
      <trkpt lat="43.68799" lon="0.9949">
        <ele>168.9</ele>
        <time>2017-08-06T11:45:05Z</time>
      </trkpt>
      <trkpt lat="43.68809" lon="0.99495">
        <ele>167.9</ele>
        <time>2017-08-06T11:45:12Z</time>
      </trkpt>
      <trkpt lat="43.68819" lon="0.99497">
        <ele>166.9</ele>
        <time>2017-08-06T11:45:19Z</time>
      </trkpt>
      <trkpt lat="43.68828" lon="0.99501">
        <ele>166.4</ele>
        <time>2017-08-06T11:45:26Z</time>
      </trkpt>
      <trkpt lat="43.68837" lon="0.99507">
        <ele>165.9</ele>
        <time>2017-08-06T11:45:33Z</time>
      </trkpt>
      <trkpt lat="43.68846" lon="0.99511">
        <ele>165.6</ele>
        <time>2017-08-06T11:45:40Z</time>
      </trkpt>
      <trkpt lat="43.68855" lon="0.99514">
        <ele>164.9</ele>
        <time>2017-08-06T11:45:48Z</time>
      </trkpt>
      <trkpt lat="43.68866" lon="0.99517">
        <ele>164.4</ele>
        <time>2017-08-06T11:45:56Z</time>
      </trkpt>
      <trkpt lat="43.68876" lon="0.99521">
        <ele>163.9</ele>
        <time>2017-08-06T11:46:03Z</time>
      </trkpt>
      <trkpt lat="43.68885" lon="0.99522">
        <ele>163.5</ele>
        <time>2017-08-06T11:46:10Z</time>
      </trkpt>
      <trkpt lat="43.68895" lon="0.99523">
        <ele>162.8</ele>
        <time>2017-08-06T11:46:17Z</time>
      </trkpt>
      <trkpt lat="43.68905" lon="0.99523">
        <ele>162.3</ele>
        <time>2017-08-06T11:46:24Z</time>
      </trkpt>
      <trkpt lat="43.68915" lon="0.99524">
        <ele>162</ele>
        <time>2017-08-06T11:46:31Z</time>
      </trkpt>
      <trkpt lat="43.68926" lon="0.99524">
        <ele>161.3</ele>
        <time>2017-08-06T11:46:38Z</time>
      </trkpt>
      <trkpt lat="43.68935" lon="0.99525">
        <ele>161</ele>
        <time>2017-08-06T11:46:45Z</time>
      </trkpt>
      <trkpt lat="43.68946" lon="0.99528">
        <ele>160.6</ele>
        <time>2017-08-06T11:46:52Z</time>
      </trkpt>
      <trkpt lat="43.68955" lon="0.9953">
        <ele>160.4</ele>
        <time>2017-08-06T11:46:59Z</time>
      </trkpt>
      <trkpt lat="43.68965" lon="0.99531">
        <ele>159.9</ele>
        <time>2017-08-06T11:47:07Z</time>
      </trkpt>
      <trkpt lat="43.68975" lon="0.99532">
        <ele>159.3</ele>
        <time>2017-08-06T11:47:15Z</time>
      </trkpt>
      <trkpt lat="43.68986" lon="0.99533">
        <ele>158.6</ele>
        <time>2017-08-06T11:47:23Z</time>
      </trkpt>
      <trkpt lat="43.68996" lon="0.99533">
        <ele>157.9</ele>
        <time>2017-08-06T11:47:30Z</time>
      </trkpt>
      <trkpt lat="43.69008" lon="0.99533">
        <ele>156.6</ele>
        <time>2017-08-06T11:48:38Z</time>
      </trkpt>
      <trkpt lat="43.69016" lon="0.99534">
        <ele>156.3</ele>
        <time>2017-08-06T11:48:47Z</time>
      </trkpt>
      <trkpt lat="43.69023" lon="0.99535">
        <ele>155.8</ele>
        <time>2017-08-06T11:48:55Z</time>
      </trkpt>
      <trkpt lat="43.69034" lon="0.99536">
        <ele>155</ele>
        <time>2017-08-06T11:49:03Z</time>
      </trkpt>
      <trkpt lat="43.69043" lon="0.99538">
        <ele>154.5</ele>
        <time>2017-08-06T11:49:11Z</time>
      </trkpt>
      <trkpt lat="43.69053" lon="0.99538">
        <ele>154.2</ele>
        <time>2017-08-06T11:49:19Z</time>
      </trkpt>
      <trkpt lat="43.69065" lon="0.99538">
        <ele>153.9</ele>
        <time>2017-08-06T11:49:27Z</time>
      </trkpt>
      <trkpt lat="43.69074" lon="0.99535">
        <ele>153.6</ele>
        <time>2017-08-06T11:49:34Z</time>
      </trkpt>
      <trkpt lat="43.69083" lon="0.99536">
        <ele>153.3</ele>
        <time>2017-08-06T11:49:41Z</time>
      </trkpt>
      <trkpt lat="43.69093" lon="0.99537">
        <ele>153</ele>
        <time>2017-08-06T11:49:49Z</time>
      </trkpt>
      <trkpt lat="43.69103" lon="0.99537">
        <ele>152.7</ele>
        <time>2017-08-06T11:49:57Z</time>
      </trkpt>
      <trkpt lat="43.69111" lon="0.99539">
        <ele>152.5</ele>
        <time>2017-08-06T11:50:04Z</time>
      </trkpt>
      <trkpt lat="43.6912" lon="0.99543">
        <ele>152</ele>
        <time>2017-08-06T11:50:23Z</time>
      </trkpt>
      <trkpt lat="43.6913" lon="0.99547">
        <ele>152.1</ele>
        <time>2017-08-06T11:50:32Z</time>
      </trkpt>
      <trkpt lat="43.6914" lon="0.9955">
        <ele>152.3</ele>
        <time>2017-08-06T11:50:41Z</time>
      </trkpt>
      <trkpt lat="43.69152" lon="0.99555">
        <ele>152.7</ele>
        <time>2017-08-06T11:50:51Z</time>
      </trkpt>
      <trkpt lat="43.69163" lon="0.99559">
        <ele>153</ele>
        <time>2017-08-06T11:50:59Z</time>
      </trkpt>
      <trkpt lat="43.69174" lon="0.99565">
        <ele>153.6</ele>
        <time>2017-08-06T11:51:08Z</time>
      </trkpt>
      <trkpt lat="43.69183" lon="0.99571">
        <ele>154.1</ele>
        <time>2017-08-06T11:51:16Z</time>
      </trkpt>
      <trkpt lat="43.69195" lon="0.99574">
        <ele>154.7</ele>
        <time>2017-08-06T11:51:25Z</time>
      </trkpt>
      <trkpt lat="43.6921" lon="0.99577">
        <ele>155.8</ele>
        <time>2017-08-06T11:51:36Z</time>
      </trkpt>
      <trkpt lat="43.69221" lon="0.99582">
        <ele>156.8</ele>
        <time>2017-08-06T11:51:45Z</time>
      </trkpt>
      <trkpt lat="43.69232" lon="0.99589">
        <ele>157.8</ele>
        <time>2017-08-06T11:51:54Z</time>
      </trkpt>
      <trkpt lat="43.69243" lon="0.99595">
        <ele>158.9</ele>
        <time>2017-08-06T11:52:04Z</time>
      </trkpt>
      <trkpt lat="43.69254" lon="0.99602">
        <ele>160.5</ele>
        <time>2017-08-06T11:52:15Z</time>
      </trkpt>
      <trkpt lat="43.69264" lon="0.99607">
        <ele>162.1</ele>
        <time>2017-08-06T11:52:27Z</time>
      </trkpt>
      <trkpt lat="43.69274" lon="0.99614">
        <ele>164.4</ele>
        <time>2017-08-06T11:52:42Z</time>
      </trkpt>
      <trkpt lat="43.69285" lon="0.9962">
        <ele>166.8</ele>
        <time>2017-08-06T11:52:57Z</time>
      </trkpt>
      <trkpt lat="43.69295" lon="0.99626">
        <ele>169.1</ele>
        <time>2017-08-06T11:53:12Z</time>
      </trkpt>
      <trkpt lat="43.69305" lon="0.99633">
        <ele>171.4</ele>
        <time>2017-08-06T11:53:27Z</time>
      </trkpt>
      <trkpt lat="43.69315" lon="0.99641">
        <ele>173.7</ele>
        <time>2017-08-06T11:53:42Z</time>
      </trkpt>
      <trkpt lat="43.69325" lon="0.99646">
        <ele>176</ele>
        <time>2017-08-06T11:53:56Z</time>
      </trkpt>
      <trkpt lat="43.69336" lon="0.99651">
        <ele>178.9</ele>
        <time>2017-08-06T11:54:11Z</time>
      </trkpt>
      <trkpt lat="43.69345" lon="0.99657">
        <ele>181.4</ele>
        <time>2017-08-06T11:54:27Z</time>
      </trkpt>
      <trkpt lat="43.69354" lon="0.99663">
        <ele>183.8</ele>
        <time>2017-08-06T11:54:41Z</time>
      </trkpt>
      <trkpt lat="43.69365" lon="0.99669">
        <ele>185.7</ele>
        <time>2017-08-06T11:54:55Z</time>
      </trkpt>
      <trkpt lat="43.69378" lon="0.99674">
        <ele>187</ele>
        <time>2017-08-06T11:55:07Z</time>
      </trkpt>
      <trkpt lat="43.6939" lon="0.99675">
        <ele>187.5</ele>
        <time>2017-08-06T11:55:59Z</time>
      </trkpt>
      <trkpt lat="43.69401" lon="0.99678">
        <ele>188</ele>
        <time>2017-08-06T11:56:12Z</time>
      </trkpt>
      <trkpt lat="43.6941" lon="0.99682">
        <ele>187.9</ele>
        <time>2017-08-06T11:56:21Z</time>
      </trkpt>
      <trkpt lat="43.6942" lon="0.99685">
        <ele>187.6</ele>
        <time>2017-08-06T11:56:30Z</time>
      </trkpt>
      <trkpt lat="43.6943" lon="0.99688">
        <ele>187.5</ele>
        <time>2017-08-06T11:56:38Z</time>
      </trkpt>
      <trkpt lat="43.6944" lon="0.9969">
        <ele>187.4</ele>
        <time>2017-08-06T11:56:45Z</time>
      </trkpt>
      <trkpt lat="43.69451" lon="0.99692">
        <ele>187.7</ele>
        <time>2017-08-06T11:56:53Z</time>
      </trkpt>
      <trkpt lat="43.6946" lon="0.99693">
        <ele>188.2</ele>
        <time>2017-08-06T11:57:01Z</time>
      </trkpt>
      <trkpt lat="43.69469" lon="0.99695">
        <ele>188.4</ele>
        <time>2017-08-06T11:57:08Z</time>
      </trkpt>
      <trkpt lat="43.69478" lon="0.99697">
        <ele>188.6</ele>
        <time>2017-08-06T11:57:16Z</time>
      </trkpt>
      <trkpt lat="43.69488" lon="0.99701">
        <ele>189.2</ele>
        <time>2017-08-06T11:57:25Z</time>
      </trkpt>
      <trkpt lat="43.69497" lon="0.99704">
        <ele>189.5</ele>
        <time>2017-08-06T11:57:33Z</time>
      </trkpt>
      <trkpt lat="43.69507" lon="0.99707">
        <ele>189.2</ele>
        <time>2017-08-06T11:57:41Z</time>
      </trkpt>
      <trkpt lat="43.69515" lon="0.9971">
        <ele>188.8</ele>
        <time>2017-08-06T11:57:48Z</time>
      </trkpt>
      <trkpt lat="43.69526" lon="0.99712">
        <ele>188.1</ele>
        <time>2017-08-06T11:57:56Z</time>
      </trkpt>
      <trkpt lat="43.69535" lon="0.99714">
        <ele>187.1</ele>
        <time>2017-08-06T11:58:03Z</time>
      </trkpt>
      <trkpt lat="43.69544" lon="0.99717">
        <ele>185.8</ele>
        <time>2017-08-06T11:58:11Z</time>
      </trkpt>
      <trkpt lat="43.69553" lon="0.99719">
        <ele>185</ele>
        <time>2017-08-06T11:58:18Z</time>
      </trkpt>
      <trkpt lat="43.69563" lon="0.9972">
        <ele>184.7</ele>
        <time>2017-08-06T11:58:25Z</time>
      </trkpt>
      <trkpt lat="43.69573" lon="0.99721">
        <ele>184</ele>
        <time>2017-08-06T11:58:33Z</time>
      </trkpt>
      <trkpt lat="43.69582" lon="0.99723">
        <ele>183.2</ele>
        <time>2017-08-06T11:58:40Z</time>
      </trkpt>
      <trkpt lat="43.69593" lon="0.99725">
        <ele>182.5</ele>
        <time>2017-08-06T11:58:48Z</time>
      </trkpt>
      <trkpt lat="43.69603" lon="0.99729">
        <ele>181.9</ele>
        <time>2017-08-06T11:58:56Z</time>
      </trkpt>
      <trkpt lat="43.69612" lon="0.99729">
        <ele>181.6</ele>
        <time>2017-08-06T11:59:01Z</time>
      </trkpt>
      <trkpt lat="43.69621" lon="0.99731">
        <ele>181.2</ele>
        <time>2017-08-06T11:59:08Z</time>
      </trkpt>
      <trkpt lat="43.69629" lon="0.99734">
        <ele>181.2</ele>
        <time>2017-08-06T11:59:16Z</time>
      </trkpt>
      <trkpt lat="43.6964" lon="0.99736">
        <ele>180.9</ele>
        <time>2017-08-06T11:59:25Z</time>
      </trkpt>
      <trkpt lat="43.69652" lon="0.99739">
        <ele>181</ele>
        <time>2017-08-06T11:59:36Z</time>
      </trkpt>
      <trkpt lat="43.69662" lon="0.99742">
        <ele>181.8</ele>
        <time>2017-08-06T11:59:53Z</time>
      </trkpt>
      <trkpt lat="43.69664" lon="0.99744">
        <ele>183.8</ele>
        <time>2017-08-06T12:01:02Z</time>
      </trkpt>
      <trkpt lat="43.69664" lon="0.99731">
        <ele>183.3</ele>
        <time>2017-08-06T12:01:10Z</time>
      </trkpt>
      <trkpt lat="43.69664" lon="0.99718">
        <ele>182.2</ele>
        <time>2017-08-06T12:01:19Z</time>
      </trkpt>
      <trkpt lat="43.69665" lon="0.99704">
        <ele>180.5</ele>
        <time>2017-08-06T12:01:30Z</time>
      </trkpt>
      <trkpt lat="43.69664" lon="0.99686">
        <ele>179.8</ele>
        <time>2017-08-06T12:01:39Z</time>
      </trkpt>
      <trkpt lat="43.69661" lon="0.99672">
        <ele>179.4</ele>
        <time>2017-08-06T12:01:48Z</time>
      </trkpt>
      <trkpt lat="43.69657" lon="0.99657">
        <ele>178.8</ele>
        <time>2017-08-06T12:01:56Z</time>
      </trkpt>
      <trkpt lat="43.69655" lon="0.99642">
        <ele>178.5</ele>
        <time>2017-08-06T12:02:05Z</time>
      </trkpt>
      <trkpt lat="43.69652" lon="0.99628">
        <ele>178.1</ele>
        <time>2017-08-06T12:02:13Z</time>
      </trkpt>
      <trkpt lat="43.6965" lon="0.99616">
        <ele>178</ele>
        <time>2017-08-06T12:02:20Z</time>
      </trkpt>
      <trkpt lat="43.69648" lon="0.99602">
        <ele>177.9</ele>
        <time>2017-08-06T12:02:28Z</time>
      </trkpt>
      <trkpt lat="43.69646" lon="0.99589">
        <ele>177.7</ele>
        <time>2017-08-06T12:02:36Z</time>
      </trkpt>
      <trkpt lat="43.69644" lon="0.99575">
        <ele>177.6</ele>
        <time>2017-08-06T12:02:44Z</time>
      </trkpt>
      <trkpt lat="43.6964" lon="0.99559">
        <ele>177.3</ele>
        <time>2017-08-06T12:02:52Z</time>
      </trkpt>
      <trkpt lat="43.69638" lon="0.99544">
        <ele>177</ele>
        <time>2017-08-06T12:03:01Z</time>
      </trkpt>
      <trkpt lat="43.69634" lon="0.99529">
        <ele>176.7</ele>
        <time>2017-08-06T12:03:09Z</time>
      </trkpt>
      <trkpt lat="43.69632" lon="0.99516">
        <ele>176.4</ele>
        <time>2017-08-06T12:03:16Z</time>
      </trkpt>
      <trkpt lat="43.69629" lon="0.99501">
        <ele>176.1</ele>
        <time>2017-08-06T12:03:24Z</time>
      </trkpt>
      <trkpt lat="43.69627" lon="0.99489">
        <ele>175.6</ele>
        <time>2017-08-06T12:03:31Z</time>
      </trkpt>
      <trkpt lat="43.69625" lon="0.99476">
        <ele>174.9</ele>
        <time>2017-08-06T12:03:47Z</time>
      </trkpt>
      <trkpt lat="43.69622" lon="0.99464">
        <ele>175</ele>
        <time>2017-08-06T12:04:01Z</time>
      </trkpt>
      <trkpt lat="43.69619" lon="0.9945">
        <ele>174.7</ele>
        <time>2017-08-06T12:04:09Z</time>
      </trkpt>
      <trkpt lat="43.69617" lon="0.99438">
        <ele>174.6</ele>
        <time>2017-08-06T12:04:16Z</time>
      </trkpt>
      <trkpt lat="43.69614" lon="0.99425">
        <ele>174.4</ele>
        <time>2017-08-06T12:04:23Z</time>
      </trkpt>
      <trkpt lat="43.69611" lon="0.99412">
        <ele>174.3</ele>
        <time>2017-08-06T12:04:30Z</time>
      </trkpt>
      <trkpt lat="43.69609" lon="0.99399">
        <ele>174.4</ele>
        <time>2017-08-06T12:04:37Z</time>
      </trkpt>
      <trkpt lat="43.69606" lon="0.99384">
        <ele>174.1</ele>
        <time>2017-08-06T12:04:45Z</time>
      </trkpt>
      <trkpt lat="43.69605" lon="0.99371">
        <ele>173.9</ele>
        <time>2017-08-06T12:04:53Z</time>
      </trkpt>
      <trkpt lat="43.69602" lon="0.99356">
        <ele>174.1</ele>
        <time>2017-08-06T12:05:01Z</time>
      </trkpt>
      <trkpt lat="43.696" lon="0.99342">
        <ele>173.7</ele>
        <time>2017-08-06T12:05:09Z</time>
      </trkpt>
      <trkpt lat="43.69599" lon="0.99327">
        <ele>173.6</ele>
        <time>2017-08-06T12:05:16Z</time>
      </trkpt>
      <trkpt lat="43.69598" lon="0.99312">
        <ele>173.2</ele>
        <time>2017-08-06T12:05:23Z</time>
      </trkpt>
      <trkpt lat="43.69596" lon="0.99298">
        <ele>173.1</ele>
        <time>2017-08-06T12:05:30Z</time>
      </trkpt>
      <trkpt lat="43.69593" lon="0.99281">
        <ele>172.9</ele>
        <time>2017-08-06T12:05:38Z</time>
      </trkpt>
      <trkpt lat="43.69594" lon="0.99266">
        <ele>172.3</ele>
        <time>2017-08-06T12:05:47Z</time>
      </trkpt>
      <trkpt lat="43.69591" lon="0.99251">
        <ele>172.1</ele>
        <time>2017-08-06T12:05:55Z</time>
      </trkpt>
      <trkpt lat="43.69588" lon="0.99237">
        <ele>171.7</ele>
        <time>2017-08-06T12:06:02Z</time>
      </trkpt>
      <trkpt lat="43.69586" lon="0.9922">
        <ele>171.2</ele>
        <time>2017-08-06T12:06:11Z</time>
      </trkpt>
      <trkpt lat="43.69582" lon="0.99204">
        <ele>170.5</ele>
        <time>2017-08-06T12:06:20Z</time>
      </trkpt>
      <trkpt lat="43.69579" lon="0.99193">
        <ele>169.9</ele>
        <time>2017-08-06T12:06:40Z</time>
      </trkpt>
      <trkpt lat="43.69578" lon="0.99185">
        <ele>169.9</ele>
        <time>2017-08-06T12:07:41Z</time>
      </trkpt>
      <trkpt lat="43.69579" lon="0.9917">
        <ele>169.7</ele>
        <time>2017-08-06T12:07:56Z</time>
      </trkpt>
      <trkpt lat="43.6958" lon="0.99155">
        <ele>169.6</ele>
        <time>2017-08-06T12:08:05Z</time>
      </trkpt>
      <trkpt lat="43.6958" lon="0.99143">
        <ele>169.4</ele>
        <time>2017-08-06T12:08:12Z</time>
      </trkpt>
      <trkpt lat="43.69581" lon="0.99128">
        <ele>169.3</ele>
        <time>2017-08-06T12:08:20Z</time>
      </trkpt>
      <trkpt lat="43.69586" lon="0.99115">
        <ele>169</ele>
        <time>2017-08-06T12:08:26Z</time>
      </trkpt>
      <trkpt lat="43.69589" lon="0.99103">
        <ele>168.7</ele>
        <time>2017-08-06T12:08:32Z</time>
      </trkpt>
      <trkpt lat="43.69589" lon="0.99089">
        <ele>168.6</ele>
        <time>2017-08-06T12:08:39Z</time>
      </trkpt>
      <trkpt lat="43.69582" lon="0.99078">
        <ele>168.4</ele>
        <time>2017-08-06T12:08:46Z</time>
      </trkpt>
      <trkpt lat="43.69581" lon="0.99064">
        <ele>168.1</ele>
        <time>2017-08-06T12:08:53Z</time>
      </trkpt>
      <trkpt lat="43.6958" lon="0.99049">
        <ele>167.5</ele>
        <time>2017-08-06T12:09:01Z</time>
      </trkpt>
      <trkpt lat="43.69582" lon="0.99034">
        <ele>166.6</ele>
        <time>2017-08-06T12:09:10Z</time>
      </trkpt>
      <trkpt lat="43.69583" lon="0.99016">
        <ele>165.8</ele>
        <time>2017-08-06T12:09:20Z</time>
      </trkpt>
      <trkpt lat="43.69585" lon="0.98999">
        <ele>165.3</ele>
        <time>2017-08-06T12:09:30Z</time>
      </trkpt>
      <trkpt lat="43.69585" lon="0.9898">
        <ele>164.7</ele>
        <time>2017-08-06T12:09:39Z</time>
      </trkpt>
      <trkpt lat="43.69586" lon="0.98962">
        <ele>164.3</ele>
        <time>2017-08-06T12:09:48Z</time>
      </trkpt>
      <trkpt lat="43.69586" lon="0.98945">
        <ele>163.9</ele>
        <time>2017-08-06T12:09:57Z</time>
      </trkpt>
      <trkpt lat="43.69593" lon="0.98928">
        <ele>163.5</ele>
        <time>2017-08-06T12:10:07Z</time>
      </trkpt>
      <trkpt lat="43.69597" lon="0.98912">
        <ele>162.9</ele>
        <time>2017-08-06T12:10:15Z</time>
      </trkpt>
      <trkpt lat="43.69599" lon="0.98894">
        <ele>162.5</ele>
        <time>2017-08-06T12:10:24Z</time>
      </trkpt>
      <trkpt lat="43.69599" lon="0.98876">
        <ele>161.7</ele>
        <time>2017-08-06T12:10:33Z</time>
      </trkpt>
      <trkpt lat="43.69601" lon="0.98861">
        <ele>161</ele>
        <time>2017-08-06T12:10:42Z</time>
      </trkpt>
      <trkpt lat="43.69599" lon="0.98842">
        <ele>160.7</ele>
        <time>2017-08-06T12:10:51Z</time>
      </trkpt>
      <trkpt lat="43.69599" lon="0.98827">
        <ele>160.5</ele>
        <time>2017-08-06T12:10:59Z</time>
      </trkpt>
      <trkpt lat="43.69595" lon="0.98806">
        <ele>160.3</ele>
        <time>2017-08-06T12:11:13Z</time>
      </trkpt>
      <trkpt lat="43.69595" lon="0.98794">
        <ele>159.9</ele>
        <time>2017-08-06T12:11:38Z</time>
      </trkpt>
      <trkpt lat="43.69593" lon="0.98778">
        <ele>159.4</ele>
        <time>2017-08-06T12:11:51Z</time>
      </trkpt>
      <trkpt lat="43.69594" lon="0.98768">
        <ele>159.2</ele>
        <time>2017-08-06T12:12:12Z</time>
      </trkpt>
      <trkpt lat="43.69589" lon="0.98748">
        <ele>159</ele>
        <time>2017-08-06T12:12:27Z</time>
      </trkpt>
      <trkpt lat="43.69586" lon="0.98729">
        <ele>158.5</ele>
        <time>2017-08-06T12:12:38Z</time>
      </trkpt>
      <trkpt lat="43.69586" lon="0.98714">
        <ele>157.9</ele>
        <time>2017-08-06T12:12:50Z</time>
      </trkpt>
      <trkpt lat="43.69583" lon="0.98699">
        <ele>157.4</ele>
        <time>2017-08-06T12:12:58Z</time>
      </trkpt>
      <trkpt lat="43.69579" lon="0.98683">
        <ele>157</ele>
        <time>2017-08-06T12:13:07Z</time>
      </trkpt>
      <trkpt lat="43.69573" lon="0.9867">
        <ele>156.7</ele>
        <time>2017-08-06T12:13:15Z</time>
      </trkpt>
      <trkpt lat="43.69565" lon="0.98658">
        <ele>156.7</ele>
        <time>2017-08-06T12:13:24Z</time>
      </trkpt>
      <trkpt lat="43.69558" lon="0.98646">
        <ele>156.2</ele>
        <time>2017-08-06T12:13:33Z</time>
      </trkpt>
      <trkpt lat="43.6955" lon="0.98635">
        <ele>155.7</ele>
        <time>2017-08-06T12:13:41Z</time>
      </trkpt>
      <trkpt lat="43.69542" lon="0.98622">
        <ele>154.9</ele>
        <time>2017-08-06T12:13:50Z</time>
      </trkpt>
      <trkpt lat="43.69536" lon="0.98611">
        <ele>154.4</ele>
        <time>2017-08-06T12:13:57Z</time>
      </trkpt>
      <trkpt lat="43.69528" lon="0.98599">
        <ele>153.9</ele>
        <time>2017-08-06T12:14:06Z</time>
      </trkpt>
      <trkpt lat="43.69523" lon="0.98586">
        <ele>153.3</ele>
        <time>2017-08-06T12:14:15Z</time>
      </trkpt>
      <trkpt lat="43.69517" lon="0.98571">
        <ele>152.9</ele>
        <time>2017-08-06T12:14:24Z</time>
      </trkpt>
      <trkpt lat="43.69511" lon="0.98558">
        <ele>152.7</ele>
        <time>2017-08-06T12:14:32Z</time>
      </trkpt>
      <trkpt lat="43.69503" lon="0.98544">
        <ele>152.7</ele>
        <time>2017-08-06T12:14:39Z</time>
      </trkpt>
      <trkpt lat="43.69495" lon="0.98535">
        <ele>152.6</ele>
        <time>2017-08-06T12:14:46Z</time>
      </trkpt>
      <trkpt lat="43.69487" lon="0.98525">
        <ele>152.4</ele>
        <time>2017-08-06T12:14:54Z</time>
      </trkpt>
      <trkpt lat="43.69481" lon="0.98514">
        <ele>152.2</ele>
        <time>2017-08-06T12:15:01Z</time>
      </trkpt>
      <trkpt lat="43.69474" lon="0.98503">
        <ele>151.5</ele>
        <time>2017-08-06T12:15:17Z</time>
      </trkpt>
      <trkpt lat="43.69463" lon="0.98489">
        <ele>151.1</ele>
        <time>2017-08-06T12:15:27Z</time>
      </trkpt>
      <trkpt lat="43.69455" lon="0.98477">
        <ele>150.4</ele>
        <time>2017-08-06T12:15:36Z</time>
      </trkpt>
      <trkpt lat="43.69445" lon="0.98463">
        <ele>150.4</ele>
        <time>2017-08-06T12:15:46Z</time>
      </trkpt>
      <trkpt lat="43.69435" lon="0.98451">
        <ele>150.7</ele>
        <time>2017-08-06T12:15:55Z</time>
      </trkpt>
      <trkpt lat="43.6943" lon="0.98449">
        <ele>151.2</ele>
        <time>2017-08-06T12:16:26Z</time>
      </trkpt>
      <trkpt lat="43.69427" lon="0.98435">
        <ele>150.7</ele>
        <time>2017-08-06T12:19:30Z</time>
      </trkpt>
      <trkpt lat="43.69423" lon="0.98422">
        <ele>150.8</ele>
        <time>2017-08-06T12:19:44Z</time>
      </trkpt>
      <trkpt lat="43.69418" lon="0.98408">
        <ele>151.3</ele>
        <time>2017-08-06T12:19:56Z</time>
      </trkpt>
      <trkpt lat="43.69412" lon="0.98396">
        <ele>151.6</ele>
        <time>2017-08-06T12:20:06Z</time>
      </trkpt>
      <trkpt lat="43.69404" lon="0.98385">
        <ele>152.2</ele>
        <time>2017-08-06T12:20:19Z</time>
      </trkpt>
      <trkpt lat="43.69397" lon="0.98373">
        <ele>152.8</ele>
        <time>2017-08-06T12:20:29Z</time>
      </trkpt>
      <trkpt lat="43.6939" lon="0.98362">
        <ele>153.9</ele>
        <time>2017-08-06T12:20:40Z</time>
      </trkpt>
      <trkpt lat="43.69381" lon="0.98345">
        <ele>155.6</ele>
        <time>2017-08-06T12:20:53Z</time>
      </trkpt>
      <trkpt lat="43.69371" lon="0.98332">
        <ele>157.1</ele>
        <time>2017-08-06T12:21:05Z</time>
      </trkpt>
      <trkpt lat="43.69362" lon="0.98316">
        <ele>158.5</ele>
        <time>2017-08-06T12:21:18Z</time>
      </trkpt>
      <trkpt lat="43.69353" lon="0.98305">
        <ele>160.4</ele>
        <time>2017-08-06T12:21:32Z</time>
      </trkpt>
      <trkpt lat="43.69343" lon="0.98296">
        <ele>162.1</ele>
        <time>2017-08-06T12:21:45Z</time>
      </trkpt>
      <trkpt lat="43.69329" lon="0.98287">
        <ele>163.8</ele>
        <time>2017-08-06T12:21:58Z</time>
      </trkpt>
      <trkpt lat="43.6932" lon="0.98279">
        <ele>165.8</ele>
        <time>2017-08-06T12:22:12Z</time>
      </trkpt>
      <trkpt lat="43.6931" lon="0.98268">
        <ele>166.6</ele>
        <time>2017-08-06T12:22:26Z</time>
      </trkpt>
      <trkpt lat="43.69303" lon="0.98258">
        <ele>166.6</ele>
        <time>2017-08-06T12:22:50Z</time>
      </trkpt>
      <trkpt lat="43.69298" lon="0.98249">
        <ele>166.5</ele>
        <time>2017-08-06T12:22:57Z</time>
      </trkpt>
      <trkpt lat="43.69294" lon="0.98238">
        <ele>166.3</ele>
        <time>2017-08-06T12:23:06Z</time>
      </trkpt>
      <trkpt lat="43.69288" lon="0.98226">
        <ele>166.2</ele>
        <time>2017-08-06T12:23:15Z</time>
      </trkpt>
      <trkpt lat="43.69284" lon="0.98214">
        <ele>166.2</ele>
        <time>2017-08-06T12:23:23Z</time>
      </trkpt>
      <trkpt lat="43.6928" lon="0.982">
        <ele>166.2</ele>
        <time>2017-08-06T12:23:31Z</time>
      </trkpt>
      <trkpt lat="43.69274" lon="0.98187">
        <ele>166.4</ele>
        <time>2017-08-06T12:23:38Z</time>
      </trkpt>
      <trkpt lat="43.6927" lon="0.98175">
        <ele>166.6</ele>
        <time>2017-08-06T12:23:45Z</time>
      </trkpt>
      <trkpt lat="43.69267" lon="0.98163">
        <ele>166.6</ele>
        <time>2017-08-06T12:23:52Z</time>
      </trkpt>
      <trkpt lat="43.69265" lon="0.9815">
        <ele>166.6</ele>
        <time>2017-08-06T12:23:59Z</time>
      </trkpt>
      <trkpt lat="43.69262" lon="0.98138">
        <ele>166.6</ele>
        <time>2017-08-06T12:24:06Z</time>
      </trkpt>
      <trkpt lat="43.69259" lon="0.98127">
        <ele>166.7</ele>
        <time>2017-08-06T12:24:13Z</time>
      </trkpt>
      <trkpt lat="43.69255" lon="0.98114">
        <ele>166.9</ele>
        <time>2017-08-06T12:24:20Z</time>
      </trkpt>
      <trkpt lat="43.69251" lon="0.98103">
        <ele>167.4</ele>
        <time>2017-08-06T12:24:27Z</time>
      </trkpt>
      <trkpt lat="43.69247" lon="0.98092">
        <ele>167.7</ele>
        <time>2017-08-06T12:24:34Z</time>
      </trkpt>
      <trkpt lat="43.69242" lon="0.9808">
        <ele>168.3</ele>
        <time>2017-08-06T12:24:42Z</time>
      </trkpt>
      <trkpt lat="43.69236" lon="0.98068">
        <ele>168.6</ele>
        <time>2017-08-06T12:24:50Z</time>
      </trkpt>
      <trkpt lat="43.69231" lon="0.98056">
        <ele>168.9</ele>
        <time>2017-08-06T12:24:58Z</time>
      </trkpt>
      <trkpt lat="43.69223" lon="0.98044">
        <ele>169.2</ele>
        <time>2017-08-06T12:25:06Z</time>
      </trkpt>
      <trkpt lat="43.69217" lon="0.98033">
        <ele>169.2</ele>
        <time>2017-08-06T12:25:14Z</time>
      </trkpt>
      <trkpt lat="43.6921" lon="0.98022">
        <ele>169.4</ele>
        <time>2017-08-06T12:25:21Z</time>
      </trkpt>
      <trkpt lat="43.69203" lon="0.9801">
        <ele>169.5</ele>
        <time>2017-08-06T12:25:29Z</time>
      </trkpt>
      <trkpt lat="43.69196" lon="0.98">
        <ele>169.6</ele>
        <time>2017-08-06T12:25:37Z</time>
      </trkpt>
      <trkpt lat="43.69189" lon="0.9799">
        <ele>169.5</ele>
        <time>2017-08-06T12:25:45Z</time>
      </trkpt>
      <trkpt lat="43.69182" lon="0.9798">
        <ele>169.5</ele>
        <time>2017-08-06T12:25:53Z</time>
      </trkpt>
      <trkpt lat="43.69174" lon="0.9797">
        <ele>169.7</ele>
        <time>2017-08-06T12:26:01Z</time>
      </trkpt>
      <trkpt lat="43.69165" lon="0.97961">
        <ele>170.1</ele>
        <time>2017-08-06T12:26:09Z</time>
      </trkpt>
      <trkpt lat="43.69156" lon="0.97952">
        <ele>170.6</ele>
        <time>2017-08-06T12:26:17Z</time>
      </trkpt>
      <trkpt lat="43.69149" lon="0.97945">
        <ele>170.7</ele>
        <time>2017-08-06T12:26:24Z</time>
      </trkpt>
      <trkpt lat="43.6914" lon="0.97941">
        <ele>170.9</ele>
        <time>2017-08-06T12:26:31Z</time>
      </trkpt>
      <trkpt lat="43.69131" lon="0.97935">
        <ele>171.4</ele>
        <time>2017-08-06T12:26:39Z</time>
      </trkpt>
      <trkpt lat="43.69121" lon="0.97931">
        <ele>171.6</ele>
        <time>2017-08-06T12:26:47Z</time>
      </trkpt>
      <trkpt lat="43.6911" lon="0.97926">
        <ele>171.8</ele>
        <time>2017-08-06T12:26:55Z</time>
      </trkpt>
      <trkpt lat="43.691" lon="0.9792">
        <ele>172.4</ele>
        <time>2017-08-06T12:27:03Z</time>
      </trkpt>
      <trkpt lat="43.6909" lon="0.97915">
        <ele>172.8</ele>
        <time>2017-08-06T12:27:10Z</time>
      </trkpt>
      <trkpt lat="43.6908" lon="0.97908">
        <ele>173.6</ele>
        <time>2017-08-06T12:27:18Z</time>
      </trkpt>
      <trkpt lat="43.69071" lon="0.97903">
        <ele>174.3</ele>
        <time>2017-08-06T12:27:28Z</time>
      </trkpt>
      <trkpt lat="43.69061" lon="0.97898">
        <ele>175.2</ele>
        <time>2017-08-06T12:27:38Z</time>
      </trkpt>
      <trkpt lat="43.6905" lon="0.97893">
        <ele>176.1</ele>
        <time>2017-08-06T12:27:50Z</time>
      </trkpt>
      <trkpt lat="43.69039" lon="0.97886">
        <ele>176.6</ele>
        <time>2017-08-06T12:28:01Z</time>
      </trkpt>
      <trkpt lat="43.69027" lon="0.97881">
        <ele>177.4</ele>
        <time>2017-08-06T12:28:11Z</time>
      </trkpt>
      <trkpt lat="43.69017" lon="0.97871">
        <ele>178.5</ele>
        <time>2017-08-06T12:28:22Z</time>
      </trkpt>
      <trkpt lat="43.69008" lon="0.97862">
        <ele>179.6</ele>
        <time>2017-08-06T12:28:32Z</time>
      </trkpt>
      <trkpt lat="43.69" lon="0.97852">
        <ele>181.4</ele>
        <time>2017-08-06T12:30:12Z</time>
      </trkpt>
      <trkpt lat="43.68992" lon="0.97843">
        <ele>181.4</ele>
        <time>2017-08-06T12:30:22Z</time>
      </trkpt>
      <trkpt lat="43.68984" lon="0.97835">
        <ele>182.1</ele>
        <time>2017-08-06T12:30:31Z</time>
      </trkpt>
      <trkpt lat="43.68976" lon="0.97826">
        <ele>182.6</ele>
        <time>2017-08-06T12:30:41Z</time>
      </trkpt>
      <trkpt lat="43.68969" lon="0.9782">
        <ele>182.9</ele>
        <time>2017-08-06T12:30:50Z</time>
      </trkpt>
      <trkpt lat="43.6896" lon="0.97809">
        <ele>183.3</ele>
        <time>2017-08-06T12:30:59Z</time>
      </trkpt>
      <trkpt lat="43.68952" lon="0.97799">
        <ele>183.4</ele>
        <time>2017-08-06T12:31:07Z</time>
      </trkpt>
      <trkpt lat="43.68944" lon="0.97792">
        <ele>183.6</ele>
        <time>2017-08-06T12:31:15Z</time>
      </trkpt>
      <trkpt lat="43.68937" lon="0.97781">
        <ele>183.7</ele>
        <time>2017-08-06T12:31:23Z</time>
      </trkpt>
      <trkpt lat="43.6893" lon="0.97771">
        <ele>183.6</ele>
        <time>2017-08-06T12:31:35Z</time>
      </trkpt>
      <trkpt lat="43.68923" lon="0.97761">
        <ele>184</ele>
        <time>2017-08-06T12:31:43Z</time>
      </trkpt>
      <trkpt lat="43.68919" lon="0.9775">
        <ele>184.4</ele>
        <time>2017-08-06T12:31:50Z</time>
      </trkpt>
      <trkpt lat="43.68915" lon="0.97739">
        <ele>184.7</ele>
        <time>2017-08-06T12:31:58Z</time>
      </trkpt>
      <trkpt lat="43.68909" lon="0.97729">
        <ele>184.8</ele>
        <time>2017-08-06T12:32:07Z</time>
      </trkpt>
      <trkpt lat="43.68905" lon="0.97717">
        <ele>185.2</ele>
        <time>2017-08-06T12:32:18Z</time>
      </trkpt>
      <trkpt lat="43.689" lon="0.97705">
        <ele>185</ele>
        <time>2017-08-06T12:32:27Z</time>
      </trkpt>
      <trkpt lat="43.68895" lon="0.97692">
        <ele>184.5</ele>
        <time>2017-08-06T12:32:36Z</time>
      </trkpt>
      <trkpt lat="43.68891" lon="0.9768">
        <ele>184.4</ele>
        <time>2017-08-06T12:32:45Z</time>
      </trkpt>
      <trkpt lat="43.68886" lon="0.97668">
        <ele>184.1</ele>
        <time>2017-08-06T12:32:53Z</time>
      </trkpt>
      <trkpt lat="43.6888" lon="0.97656">
        <ele>183.9</ele>
        <time>2017-08-06T12:33:01Z</time>
      </trkpt>
      <trkpt lat="43.68873" lon="0.97647">
        <ele>183.9</ele>
        <time>2017-08-06T12:33:08Z</time>
      </trkpt>
      <trkpt lat="43.68865" lon="0.97639">
        <ele>183.8</ele>
        <time>2017-08-06T12:33:16Z</time>
      </trkpt>
      <trkpt lat="43.68857" lon="0.97633">
        <ele>184</ele>
        <time>2017-08-06T12:33:24Z</time>
      </trkpt>
      <trkpt lat="43.68849" lon="0.97626">
        <ele>184.2</ele>
        <time>2017-08-06T12:33:32Z</time>
      </trkpt>
      <trkpt lat="43.68842" lon="0.97619">
        <ele>184.8</ele>
        <time>2017-08-06T12:33:41Z</time>
      </trkpt>
      <trkpt lat="43.68834" lon="0.97612">
        <ele>185.6</ele>
        <time>2017-08-06T12:33:53Z</time>
      </trkpt>
      <trkpt lat="43.68824" lon="0.97599">
        <ele>185.7</ele>
        <time>2017-08-06T12:34:05Z</time>
      </trkpt>
      <trkpt lat="43.68815" lon="0.97588">
        <ele>185.5</ele>
        <time>2017-08-06T12:34:14Z</time>
      </trkpt>
      <trkpt lat="43.68806" lon="0.9758">
        <ele>184.3</ele>
        <time>2017-08-06T12:34:27Z</time>
      </trkpt>
      <trkpt lat="43.68798" lon="0.97568">
        <ele>182.3</ele>
        <time>2017-08-06T12:34:39Z</time>
      </trkpt>
      <trkpt lat="43.68788" lon="0.97556">
        <ele>180.9</ele>
        <time>2017-08-06T12:34:50Z</time>
      </trkpt>
      <trkpt lat="43.68779" lon="0.97544">
        <ele>179.4</ele>
        <time>2017-08-06T12:35:00Z</time>
      </trkpt>
      <trkpt lat="43.68772" lon="0.9753">
        <ele>177.9</ele>
        <time>2017-08-06T12:35:11Z</time>
      </trkpt>
      <trkpt lat="43.68765" lon="0.97516">
        <ele>176.8</ele>
        <time>2017-08-06T12:35:19Z</time>
      </trkpt>
      <trkpt lat="43.68759" lon="0.97502">
        <ele>175.8</ele>
        <time>2017-08-06T12:35:28Z</time>
      </trkpt>
      <trkpt lat="43.68754" lon="0.97491">
        <ele>174.7</ele>
        <time>2017-08-06T12:35:36Z</time>
      </trkpt>
      <trkpt lat="43.6875" lon="0.97479">
        <ele>172.9</ele>
        <time>2017-08-06T12:36:46Z</time>
      </trkpt>
      <trkpt lat="43.68744" lon="0.97467">
        <ele>172.1</ele>
        <time>2017-08-06T12:36:58Z</time>
      </trkpt>
      <trkpt lat="43.68736" lon="0.97455">
        <ele>170.9</ele>
        <time>2017-08-06T12:37:07Z</time>
      </trkpt>
      <trkpt lat="43.68728" lon="0.97443">
        <ele>169.4</ele>
        <time>2017-08-06T12:37:15Z</time>
      </trkpt>
      <trkpt lat="43.68722" lon="0.97431">
        <ele>167.9</ele>
        <time>2017-08-06T12:37:24Z</time>
      </trkpt>
      <trkpt lat="43.68716" lon="0.97419">
        <ele>166.3</ele>
        <time>2017-08-06T12:37:32Z</time>
      </trkpt>
      <trkpt lat="43.68713" lon="0.97407">
        <ele>164.6</ele>
        <time>2017-08-06T12:37:47Z</time>
      </trkpt>
      <trkpt lat="43.68711" lon="0.97395">
        <ele>164.3</ele>
        <time>2017-08-06T12:38:03Z</time>
      </trkpt>
      <trkpt lat="43.6871" lon="0.97381">
        <ele>163.8</ele>
        <time>2017-08-06T12:38:21Z</time>
      </trkpt>
      <trkpt lat="43.6871" lon="0.97368">
        <ele>163.4</ele>
        <time>2017-08-06T12:38:29Z</time>
      </trkpt>
      <trkpt lat="43.68707" lon="0.97354">
        <ele>162.5</ele>
        <time>2017-08-06T12:38:39Z</time>
      </trkpt>
      <trkpt lat="43.68708" lon="0.97347">
        <ele>161.2</ele>
        <time>2017-08-06T12:39:09Z</time>
      </trkpt>
      <trkpt lat="43.68712" lon="0.97334">
        <ele>160.9</ele>
        <time>2017-08-06T12:39:18Z</time>
      </trkpt>
      <trkpt lat="43.68715" lon="0.97332">
        <ele>160.5</ele>
        <time>2017-08-06T12:39:58Z</time>
      </trkpt>
      <trkpt lat="43.68713" lon="0.97328">
        <ele>159.9</ele>
        <time>2017-08-06T12:40:23Z</time>
      </trkpt>
      <trkpt lat="43.68708" lon="0.9733">
        <ele>160.4</ele>
        <time>2017-08-06T12:41:13Z</time>
      </trkpt>
      <trkpt lat="43.68702" lon="0.97317">
        <ele>160.2</ele>
        <time>2017-08-06T12:41:35Z</time>
      </trkpt>
      <trkpt lat="43.68697" lon="0.97301">
        <ele>160</ele>
        <time>2017-08-06T12:41:44Z</time>
      </trkpt>
      <trkpt lat="43.68694" lon="0.97286">
        <ele>159.5</ele>
        <time>2017-08-06T12:41:51Z</time>
      </trkpt>
      <trkpt lat="43.68689" lon="0.97271">
        <ele>159</ele>
        <time>2017-08-06T12:41:59Z</time>
      </trkpt>
      <trkpt lat="43.68684" lon="0.97259">
        <ele>158.7</ele>
        <time>2017-08-06T12:42:06Z</time>
      </trkpt>
      <trkpt lat="43.68682" lon="0.97248">
        <ele>158.8</ele>
        <time>2017-08-06T12:42:22Z</time>
      </trkpt>
      <trkpt lat="43.68678" lon="0.97236">
        <ele>158.7</ele>
        <time>2017-08-06T12:42:32Z</time>
      </trkpt>
      <trkpt lat="43.68673" lon="0.97224">
        <ele>158.6</ele>
        <time>2017-08-06T12:42:41Z</time>
      </trkpt>
      <trkpt lat="43.68669" lon="0.97212">
        <ele>158.2</ele>
        <time>2017-08-06T12:42:50Z</time>
      </trkpt>
      <trkpt lat="43.68666" lon="0.972">
        <ele>158.4</ele>
        <time>2017-08-06T12:42:59Z</time>
      </trkpt>
      <trkpt lat="43.68667" lon="0.97187">
        <ele>158.3</ele>
        <time>2017-08-06T12:43:26Z</time>
      </trkpt>
      <trkpt lat="43.68668" lon="0.97174">
        <ele>158.4</ele>
        <time>2017-08-06T12:43:33Z</time>
      </trkpt>
      <trkpt lat="43.6867" lon="0.9716">
        <ele>158.7</ele>
        <time>2017-08-06T12:43:46Z</time>
      </trkpt>
      <trkpt lat="43.68672" lon="0.97148">
        <ele>159</ele>
        <time>2017-08-06T12:43:53Z</time>
      </trkpt>
      <trkpt lat="43.68675" lon="0.97134">
        <ele>159.2</ele>
        <time>2017-08-06T12:44:01Z</time>
      </trkpt>
      <trkpt lat="43.68676" lon="0.97121">
        <ele>159.3</ele>
        <time>2017-08-06T12:44:08Z</time>
      </trkpt>
      <trkpt lat="43.6868" lon="0.97108">
        <ele>159.6</ele>
        <time>2017-08-06T12:44:17Z</time>
      </trkpt>
      <trkpt lat="43.68684" lon="0.97091">
        <ele>160.3</ele>
        <time>2017-08-06T12:44:26Z</time>
      </trkpt>
      <trkpt lat="43.68686" lon="0.97078">
        <ele>160.6</ele>
        <time>2017-08-06T12:44:34Z</time>
      </trkpt>
      <trkpt lat="43.68689" lon="0.97065">
        <ele>160.8</ele>
        <time>2017-08-06T12:44:42Z</time>
      </trkpt>
      <trkpt lat="43.68693" lon="0.97052">
        <ele>161.1</ele>
        <time>2017-08-06T12:44:52Z</time>
      </trkpt>
      <trkpt lat="43.68692" lon="0.97038">
        <ele>161.6</ele>
        <time>2017-08-06T12:45:03Z</time>
      </trkpt>
      <trkpt lat="43.6869" lon="0.97023">
        <ele>162.8</ele>
        <time>2017-08-06T12:45:15Z</time>
      </trkpt>
      <trkpt lat="43.68683" lon="0.97009">
        <ele>164.4</ele>
        <time>2017-08-06T12:45:27Z</time>
      </trkpt>
      <trkpt lat="43.68672" lon="0.96999">
        <ele>165.2</ele>
        <time>2017-08-06T12:45:40Z</time>
      </trkpt>
      <trkpt lat="43.68661" lon="0.96989">
        <ele>165.5</ele>
        <time>2017-08-06T12:45:52Z</time>
      </trkpt>
      <trkpt lat="43.6865" lon="0.96983">
        <ele>166.2</ele>
        <time>2017-08-06T12:46:03Z</time>
      </trkpt>
      <trkpt lat="43.68641" lon="0.96974">
        <ele>166.6</ele>
        <time>2017-08-06T12:46:13Z</time>
      </trkpt>
      <trkpt lat="43.68632" lon="0.96968">
        <ele>167.3</ele>
        <time>2017-08-06T12:46:25Z</time>
      </trkpt>
      <trkpt lat="43.68622" lon="0.96958">
        <ele>167.8</ele>
        <time>2017-08-06T12:46:40Z</time>
      </trkpt>
      <trkpt lat="43.68613" lon="0.96951">
        <ele>168.5</ele>
        <time>2017-08-06T12:46:51Z</time>
      </trkpt>
      <trkpt lat="43.68603" lon="0.96942">
        <ele>169.6</ele>
        <time>2017-08-06T12:47:02Z</time>
      </trkpt>
      <trkpt lat="43.68592" lon="0.96932">
        <ele>170.4</ele>
        <time>2017-08-06T12:47:14Z</time>
      </trkpt>
      <trkpt lat="43.68583" lon="0.96924">
        <ele>171.1</ele>
        <time>2017-08-06T12:47:24Z</time>
      </trkpt>
      <trkpt lat="43.68572" lon="0.96916">
        <ele>171.9</ele>
        <time>2017-08-06T12:47:34Z</time>
      </trkpt>
      <trkpt lat="43.68562" lon="0.96907">
        <ele>172.6</ele>
        <time>2017-08-06T12:47:44Z</time>
      </trkpt>
      <trkpt lat="43.68552" lon="0.969">
        <ele>173.1</ele>
        <time>2017-08-06T12:47:55Z</time>
      </trkpt>
      <trkpt lat="43.68541" lon="0.96889">
        <ele>173.6</ele>
        <time>2017-08-06T12:48:05Z</time>
      </trkpt>
      <trkpt lat="43.68533" lon="0.96882">
        <ele>173.8</ele>
        <time>2017-08-06T12:48:14Z</time>
      </trkpt>
      <trkpt lat="43.68523" lon="0.96873">
        <ele>173.8</ele>
        <time>2017-08-06T12:48:23Z</time>
      </trkpt>
      <trkpt lat="43.68515" lon="0.96863">
        <ele>174.1</ele>
        <time>2017-08-06T12:48:31Z</time>
      </trkpt>
      <trkpt lat="43.68509" lon="0.96852">
        <ele>174.4</ele>
        <time>2017-08-06T12:48:39Z</time>
      </trkpt>
      <trkpt lat="43.68504" lon="0.96841">
        <ele>174.7</ele>
        <time>2017-08-06T12:48:48Z</time>
      </trkpt>
      <trkpt lat="43.68499" lon="0.9683">
        <ele>174.9</ele>
        <time>2017-08-06T12:48:57Z</time>
      </trkpt>
      <trkpt lat="43.68493" lon="0.96819">
        <ele>175.3</ele>
        <time>2017-08-06T12:49:09Z</time>
      </trkpt>
      <trkpt lat="43.68487" lon="0.96805">
        <ele>175.7</ele>
        <time>2017-08-06T12:49:17Z</time>
      </trkpt>
      <trkpt lat="43.68483" lon="0.96794">
        <ele>176.1</ele>
        <time>2017-08-06T12:49:24Z</time>
      </trkpt>
      <trkpt lat="43.68476" lon="0.96783">
        <ele>176.5</ele>
        <time>2017-08-06T12:49:33Z</time>
      </trkpt>
      <trkpt lat="43.6847" lon="0.9677">
        <ele>177</ele>
        <time>2017-08-06T12:49:42Z</time>
      </trkpt>
      <trkpt lat="43.68466" lon="0.96756">
        <ele>177.7</ele>
        <time>2017-08-06T12:49:53Z</time>
      </trkpt>
      <trkpt lat="43.6846" lon="0.96746">
        <ele>178.3</ele>
        <time>2017-08-06T12:50:05Z</time>
      </trkpt>
      <trkpt lat="43.68458" lon="0.96733">
        <ele>178.6</ele>
        <time>2017-08-06T12:50:19Z</time>
      </trkpt>
      <trkpt lat="43.68455" lon="0.96719">
        <ele>179.2</ele>
        <time>2017-08-06T12:50:30Z</time>
      </trkpt>
      <trkpt lat="43.68453" lon="0.96712">
        <ele>180.4</ele>
        <time>2017-08-06T12:51:07Z</time>
      </trkpt>
      <trkpt lat="43.68445" lon="0.96711">
        <ele>180.4</ele>
        <time>2017-08-06T12:51:44Z</time>
      </trkpt>
      <trkpt lat="43.68436" lon="0.96716">
        <ele>180.4</ele>
        <time>2017-08-06T12:51:53Z</time>
      </trkpt>
      <trkpt lat="43.68428" lon="0.96723">
        <ele>179.8</ele>
        <time>2017-08-06T12:52:02Z</time>
      </trkpt>
      <trkpt lat="43.6842" lon="0.96729">
        <ele>178.9</ele>
        <time>2017-08-06T12:52:13Z</time>
      </trkpt>
      <trkpt lat="43.68412" lon="0.96736">
        <ele>178.4</ele>
        <time>2017-08-06T12:52:53Z</time>
      </trkpt>
      <trkpt lat="43.68404" lon="0.96743">
        <ele>177.5</ele>
        <time>2017-08-06T12:53:03Z</time>
      </trkpt>
      <trkpt lat="43.68394" lon="0.96752">
        <ele>176.8</ele>
        <time>2017-08-06T12:53:13Z</time>
      </trkpt>
      <trkpt lat="43.68385" lon="0.96758">
        <ele>176</ele>
        <time>2017-08-06T12:53:21Z</time>
      </trkpt>
      <trkpt lat="43.68376" lon="0.96767">
        <ele>174.6</ele>
        <time>2017-08-06T12:53:31Z</time>
      </trkpt>
      <trkpt lat="43.68368" lon="0.96774">
        <ele>173.1</ele>
        <time>2017-08-06T12:53:41Z</time>
      </trkpt>
      <trkpt lat="43.68358" lon="0.96783">
        <ele>171.8</ele>
        <time>2017-08-06T12:53:51Z</time>
      </trkpt>
      <trkpt lat="43.68349" lon="0.96791">
        <ele>170.6</ele>
        <time>2017-08-06T12:54:01Z</time>
      </trkpt>
      <trkpt lat="43.68342" lon="0.96801">
        <ele>169.9</ele>
        <time>2017-08-06T12:54:28Z</time>
      </trkpt>
      <trkpt lat="43.68334" lon="0.96796">
        <ele>170</ele>
        <time>2017-08-06T12:54:48Z</time>
      </trkpt>
      <trkpt lat="43.68329" lon="0.96779">
        <ele>170.3</ele>
        <time>2017-08-06T12:55:03Z</time>
      </trkpt>
      <trkpt lat="43.68322" lon="0.96765">
        <ele>170.7</ele>
        <time>2017-08-06T12:55:15Z</time>
      </trkpt>
      <trkpt lat="43.68311" lon="0.96753">
        <ele>171.7</ele>
        <time>2017-08-06T12:55:28Z</time>
      </trkpt>
      <trkpt lat="43.68299" lon="0.96746">
        <ele>173.4</ele>
        <time>2017-08-06T12:55:42Z</time>
      </trkpt>
      <trkpt lat="43.68285" lon="0.96742">
        <ele>175.4</ele>
        <time>2017-08-06T12:55:58Z</time>
      </trkpt>
      <trkpt lat="43.6827" lon="0.96738">
        <ele>176.8</ele>
        <time>2017-08-06T12:56:12Z</time>
      </trkpt>
      <trkpt lat="43.68253" lon="0.96736">
        <ele>178</ele>
        <time>2017-08-06T12:56:25Z</time>
      </trkpt>
      <trkpt lat="43.68239" lon="0.96734">
        <ele>179</ele>
        <time>2017-08-06T12:56:38Z</time>
      </trkpt>
      <trkpt lat="43.68225" lon="0.96729">
        <ele>179.8</ele>
        <time>2017-08-06T12:56:50Z</time>
      </trkpt>
      <trkpt lat="43.68213" lon="0.96723">
        <ele>180.2</ele>
        <time>2017-08-06T12:57:01Z</time>
      </trkpt>
      <trkpt lat="43.68204" lon="0.9671">
        <ele>180.4</ele>
        <time>2017-08-06T12:57:12Z</time>
      </trkpt>
      <trkpt lat="43.68204" lon="0.96692">
        <ele>180.8</ele>
        <time>2017-08-06T12:57:22Z</time>
      </trkpt>
      <trkpt lat="43.68205" lon="0.96676">
        <ele>181.1</ele>
        <time>2017-08-06T12:57:33Z</time>
      </trkpt>
      <trkpt lat="43.68206" lon="0.96658">
        <ele>181.6</ele>
        <time>2017-08-06T12:57:44Z</time>
      </trkpt>
      <trkpt lat="43.68202" lon="0.96642">
        <ele>181.9</ele>
        <time>2017-08-06T12:57:56Z</time>
      </trkpt>
      <trkpt lat="43.6819" lon="0.96634">
        <ele>182</ele>
        <time>2017-08-06T12:58:08Z</time>
      </trkpt>
      <trkpt lat="43.68179" lon="0.96628">
        <ele>182.4</ele>
        <time>2017-08-06T12:58:19Z</time>
      </trkpt>
      <trkpt lat="43.6817" lon="0.96623">
        <ele>182.8</ele>
        <time>2017-08-06T12:58:39Z</time>
      </trkpt>
      <trkpt lat="43.6816" lon="0.96619">
        <ele>183.4</ele>
        <time>2017-08-06T12:59:40Z</time>
      </trkpt>
      <trkpt lat="43.6815" lon="0.96616">
        <ele>183.4</ele>
        <time>2017-08-06T12:59:50Z</time>
      </trkpt>
      <trkpt lat="43.68141" lon="0.96616">
        <ele>183.5</ele>
        <time>2017-08-06T13:00:01Z</time>
      </trkpt>
      <trkpt lat="43.68131" lon="0.96615">
        <ele>183.9</ele>
        <time>2017-08-06T13:00:13Z</time>
      </trkpt>
      <trkpt lat="43.68121" lon="0.96614">
        <ele>184.3</ele>
        <time>2017-08-06T13:00:22Z</time>
      </trkpt>
      <trkpt lat="43.68111" lon="0.96614">
        <ele>184.7</ele>
        <time>2017-08-06T13:00:31Z</time>
      </trkpt>
      <trkpt lat="43.68101" lon="0.96613">
        <ele>185.4</ele>
        <time>2017-08-06T13:00:39Z</time>
      </trkpt>
      <trkpt lat="43.68085" lon="0.96616">
        <ele>186.6</ele>
        <time>2017-08-06T13:01:30Z</time>
      </trkpt>
      <trkpt lat="43.68076" lon="0.96614">
        <ele>187.1</ele>
        <time>2017-08-06T13:01:44Z</time>
      </trkpt>
      <trkpt lat="43.68066" lon="0.96612">
        <ele>187.9</ele>
        <time>2017-08-06T13:01:53Z</time>
      </trkpt>
      <trkpt lat="43.68056" lon="0.96611">
        <ele>188.9</ele>
        <time>2017-08-06T13:02:02Z</time>
      </trkpt>
      <trkpt lat="43.68047" lon="0.96614">
        <ele>190.1</ele>
        <time>2017-08-06T13:02:19Z</time>
      </trkpt>
      <trkpt lat="43.68038" lon="0.96615">
        <ele>190.3</ele>
        <time>2017-08-06T13:02:27Z</time>
      </trkpt>
      <trkpt lat="43.68029" lon="0.9662">
        <ele>190.6</ele>
        <time>2017-08-06T13:02:35Z</time>
      </trkpt>
      <trkpt lat="43.68019" lon="0.96623">
        <ele>190.2</ele>
        <time>2017-08-06T13:02:44Z</time>
      </trkpt>
      <trkpt lat="43.6801" lon="0.96626">
        <ele>189.9</ele>
        <time>2017-08-06T13:02:52Z</time>
      </trkpt>
      <trkpt lat="43.68" lon="0.96629">
        <ele>189.4</ele>
        <time>2017-08-06T13:03:01Z</time>
      </trkpt>
      <trkpt lat="43.6799" lon="0.96632">
        <ele>188.4</ele>
        <time>2017-08-06T13:03:09Z</time>
      </trkpt>
      <trkpt lat="43.67981" lon="0.96634">
        <ele>187.3</ele>
        <time>2017-08-06T13:03:17Z</time>
      </trkpt>
      <trkpt lat="43.67971" lon="0.96637">
        <ele>186.2</ele>
        <time>2017-08-06T13:03:25Z</time>
      </trkpt>
      <trkpt lat="43.6796" lon="0.96639">
        <ele>185.3</ele>
        <time>2017-08-06T13:03:33Z</time>
      </trkpt>
      <trkpt lat="43.67951" lon="0.96642">
        <ele>184.2</ele>
        <time>2017-08-06T13:03:41Z</time>
      </trkpt>
      <trkpt lat="43.67941" lon="0.96646">
        <ele>183.3</ele>
        <time>2017-08-06T13:03:49Z</time>
      </trkpt>
      <trkpt lat="43.67931" lon="0.96649">
        <ele>182.8</ele>
        <time>2017-08-06T13:03:57Z</time>
      </trkpt>
      <trkpt lat="43.67921" lon="0.96653">
        <ele>182.2</ele>
        <time>2017-08-06T13:04:06Z</time>
      </trkpt>
      <trkpt lat="43.67918" lon="0.96651">
        <ele>182.4</ele>
        <time>2017-08-06T13:04:34Z</time>
      </trkpt>
      <trkpt lat="43.67893" lon="0.96657">
        <ele>187</ele>
        <time>2017-08-06T13:05:34Z</time>
      </trkpt>
      <trkpt lat="43.67839" lon="0.96646">
        <ele>184.5</ele>
        <time>2017-08-06T13:05:55Z</time>
      </trkpt>
      <trkpt lat="43.67858" lon="0.96708">
        <ele>184.6</ele>
        <time>2017-08-06T13:07:19Z</time>
      </trkpt>
      <trkpt lat="43.67874" lon="0.96766">
        <ele>183.7</ele>
        <time>2017-08-06T13:09:02Z</time>
      </trkpt>
      <trkpt lat="43.67892" lon="0.9684">
        <ele>182.4</ele>
        <time>2017-08-06T13:10:05Z</time>
      </trkpt>
      <trkpt lat="43.679" lon="0.9688">
        <ele>179.8</ele>
        <time>2017-08-06T13:11:04Z</time>
      </trkpt>
      <trkpt lat="43.679" lon="0.96892">
        <ele>179.2</ele>
        <time>2017-08-06T13:11:16Z</time>
      </trkpt>
      <trkpt lat="43.67902" lon="0.96905">
        <ele>178.9</ele>
        <time>2017-08-06T13:11:26Z</time>
      </trkpt>
      <trkpt lat="43.67904" lon="0.96919">
        <ele>178.4</ele>
        <time>2017-08-06T13:11:36Z</time>
      </trkpt>
      <trkpt lat="43.67905" lon="0.96933">
        <ele>178.2</ele>
        <time>2017-08-06T13:11:44Z</time>
      </trkpt>
      <trkpt lat="43.67908" lon="0.96946">
        <ele>178</ele>
        <time>2017-08-06T13:11:53Z</time>
      </trkpt>
      <trkpt lat="43.67908" lon="0.96956">
        <ele>177.7</ele>
        <time>2017-08-06T13:12:16Z</time>
      </trkpt>
      <trkpt lat="43.67909" lon="0.96969">
        <ele>177.3</ele>
        <time>2017-08-06T13:12:27Z</time>
      </trkpt>
      <trkpt lat="43.67911" lon="0.96984">
        <ele>177</ele>
        <time>2017-08-06T13:12:37Z</time>
      </trkpt>
      <trkpt lat="43.67913" lon="0.96998">
        <ele>176.9</ele>
        <time>2017-08-06T13:12:46Z</time>
      </trkpt>
      <trkpt lat="43.67916" lon="0.97016">
        <ele>176.3</ele>
        <time>2017-08-06T13:12:57Z</time>
      </trkpt>
      <trkpt lat="43.67917" lon="0.97032">
        <ele>176</ele>
        <time>2017-08-06T13:13:06Z</time>
      </trkpt>
      <trkpt lat="43.67918" lon="0.97047">
        <ele>175.7</ele>
        <time>2017-08-06T13:13:16Z</time>
      </trkpt>
      <trkpt lat="43.67918" lon="0.97063">
        <ele>175.5</ele>
        <time>2017-08-06T13:13:25Z</time>
      </trkpt>
      <trkpt lat="43.6792" lon="0.97079">
        <ele>174.9</ele>
        <time>2017-08-06T13:13:34Z</time>
      </trkpt>
      <trkpt lat="43.67921" lon="0.97094">
        <ele>174.6</ele>
        <time>2017-08-06T13:13:42Z</time>
      </trkpt>
      <trkpt lat="43.67921" lon="0.9711">
        <ele>174.2</ele>
        <time>2017-08-06T13:13:52Z</time>
      </trkpt>
      <trkpt lat="43.67922" lon="0.97125">
        <ele>174</ele>
        <time>2017-08-06T13:14:01Z</time>
      </trkpt>
      <trkpt lat="43.67923" lon="0.9714">
        <ele>173.9</ele>
        <time>2017-08-06T13:14:10Z</time>
      </trkpt>
      <trkpt lat="43.67925" lon="0.97157">
        <ele>173.3</ele>
        <time>2017-08-06T13:14:20Z</time>
      </trkpt>
      <trkpt lat="43.67926" lon="0.97174">
        <ele>173</ele>
        <time>2017-08-06T13:14:28Z</time>
      </trkpt>
      <trkpt lat="43.67926" lon="0.97188">
        <ele>173.1</ele>
        <time>2017-08-06T13:14:35Z</time>
      </trkpt>
      <trkpt lat="43.67927" lon="0.97204">
        <ele>172.9</ele>
        <time>2017-08-06T13:14:43Z</time>
      </trkpt>
      <trkpt lat="43.67928" lon="0.97217">
        <ele>172.9</ele>
        <time>2017-08-06T13:14:51Z</time>
      </trkpt>
      <trkpt lat="43.67928" lon="0.9723">
        <ele>173.2</ele>
        <time>2017-08-06T13:14:59Z</time>
      </trkpt>
      <trkpt lat="43.67929" lon="0.97245">
        <ele>173.7</ele>
        <time>2017-08-06T13:15:08Z</time>
      </trkpt>
      <trkpt lat="43.6793" lon="0.97262">
        <ele>173.8</ele>
        <time>2017-08-06T13:15:17Z</time>
      </trkpt>
      <trkpt lat="43.67934" lon="0.97275">
        <ele>173.4</ele>
        <time>2017-08-06T13:15:26Z</time>
      </trkpt>
      <trkpt lat="43.67937" lon="0.97289">
        <ele>172.9</ele>
        <time>2017-08-06T13:15:35Z</time>
      </trkpt>
      <trkpt lat="43.6794" lon="0.97306">
        <ele>172.4</ele>
        <time>2017-08-06T13:15:45Z</time>
      </trkpt>
      <trkpt lat="43.67944" lon="0.97324">
        <ele>171.9</ele>
        <time>2017-08-06T13:15:55Z</time>
      </trkpt>
      <trkpt lat="43.67948" lon="0.97339">
        <ele>171.7</ele>
        <time>2017-08-06T13:16:04Z</time>
      </trkpt>
      <trkpt lat="43.67953" lon="0.97353">
        <ele>171.1</ele>
        <time>2017-08-06T13:16:15Z</time>
      </trkpt>
      <trkpt lat="43.67958" lon="0.97368">
        <ele>170.4</ele>
        <time>2017-08-06T13:16:26Z</time>
      </trkpt>
      <trkpt lat="43.67965" lon="0.97383">
        <ele>169.8</ele>
        <time>2017-08-06T13:16:37Z</time>
      </trkpt>
      <trkpt lat="43.67969" lon="0.97396">
        <ele>169.3</ele>
        <time>2017-08-06T13:16:47Z</time>
      </trkpt>
      <trkpt lat="43.67972" lon="0.97407">
        <ele>168.3</ele>
        <time>2017-08-06T13:16:57Z</time>
      </trkpt>
      <trkpt lat="43.67977" lon="0.97424">
        <ele>167.3</ele>
        <time>2017-08-06T13:17:08Z</time>
      </trkpt>
      <trkpt lat="43.67981" lon="0.97438">
        <ele>166.3</ele>
        <time>2017-08-06T13:17:18Z</time>
      </trkpt>
      <trkpt lat="43.67984" lon="0.97452">
        <ele>165.5</ele>
        <time>2017-08-06T13:17:27Z</time>
      </trkpt>
      <trkpt lat="43.67986" lon="0.97466">
        <ele>165.1</ele>
        <time>2017-08-06T13:17:36Z</time>
      </trkpt>
      <trkpt lat="43.67988" lon="0.97481">
        <ele>164.5</ele>
        <time>2017-08-06T13:17:45Z</time>
      </trkpt>
      <trkpt lat="43.6799" lon="0.97496">
        <ele>163.8</ele>
        <time>2017-08-06T13:17:54Z</time>
      </trkpt>
      <trkpt lat="43.67992" lon="0.9751">
        <ele>163.4</ele>
        <time>2017-08-06T13:18:05Z</time>
      </trkpt>
      <trkpt lat="43.67993" lon="0.97525">
        <ele>163.4</ele>
        <time>2017-08-06T13:18:15Z</time>
      </trkpt>
      <trkpt lat="43.67996" lon="0.97542">
        <ele>162.9</ele>
        <time>2017-08-06T13:18:25Z</time>
      </trkpt>
      <trkpt lat="43.67998" lon="0.97557">
        <ele>162</ele>
        <time>2017-08-06T13:18:34Z</time>
      </trkpt>
      <trkpt lat="43.67999" lon="0.97572">
        <ele>161.2</ele>
        <time>2017-08-06T13:18:42Z</time>
      </trkpt>
      <trkpt lat="43.67997" lon="0.97585">
        <ele>160.6</ele>
        <time>2017-08-06T13:18:50Z</time>
      </trkpt>
      <trkpt lat="43.67995" lon="0.97599">
        <ele>160.1</ele>
        <time>2017-08-06T13:18:59Z</time>
      </trkpt>
      <trkpt lat="43.67994" lon="0.97611">
        <ele>159.9</ele>
        <time>2017-08-06T13:19:07Z</time>
      </trkpt>
      <trkpt lat="43.67994" lon="0.97623">
        <ele>159.6</ele>
        <time>2017-08-06T13:19:30Z</time>
      </trkpt>
      <trkpt lat="43.67992" lon="0.97637">
        <ele>159.5</ele>
        <time>2017-08-06T13:19:39Z</time>
      </trkpt>
      <trkpt lat="43.6799" lon="0.9765">
        <ele>159.5</ele>
        <time>2017-08-06T13:19:49Z</time>
      </trkpt>
      <trkpt lat="43.67987" lon="0.97666">
        <ele>159.6</ele>
        <time>2017-08-06T13:19:58Z</time>
      </trkpt>
      <trkpt lat="43.67985" lon="0.97682">
        <ele>159.7</ele>
        <time>2017-08-06T13:20:07Z</time>
      </trkpt>
      <trkpt lat="43.67985" lon="0.97692">
        <ele>159.1</ele>
        <time>2017-08-06T13:20:41Z</time>
      </trkpt>
      <trkpt lat="43.6799" lon="0.97702">
        <ele>158.9</ele>
        <time>2017-08-06T13:21:15Z</time>
      </trkpt>
      <trkpt lat="43.67998" lon="0.97711">
        <ele>158.7</ele>
        <time>2017-08-06T13:21:24Z</time>
      </trkpt>
      <trkpt lat="43.68006" lon="0.9772">
        <ele>158.8</ele>
        <time>2017-08-06T13:21:32Z</time>
      </trkpt>
      <trkpt lat="43.68016" lon="0.97729">
        <ele>158.7</ele>
        <time>2017-08-06T13:21:40Z</time>
      </trkpt>
      <trkpt lat="43.68024" lon="0.97739">
        <ele>158.6</ele>
        <time>2017-08-06T13:21:48Z</time>
      </trkpt>
      <trkpt lat="43.68031" lon="0.97747">
        <ele>158.7</ele>
        <time>2017-08-06T13:21:56Z</time>
      </trkpt>
      <trkpt lat="43.68038" lon="0.97756">
        <ele>158.9</ele>
        <time>2017-08-06T13:22:07Z</time>
      </trkpt>
      <trkpt lat="43.68041" lon="0.97765">
        <ele>159.2</ele>
        <time>2017-08-06T13:22:48Z</time>
      </trkpt>
      <trkpt lat="43.68049" lon="0.97774">
        <ele>159.1</ele>
        <time>2017-08-06T13:22:57Z</time>
      </trkpt>
      <trkpt lat="43.68059" lon="0.9778">
        <ele>159.2</ele>
        <time>2017-08-06T13:23:05Z</time>
      </trkpt>
      <trkpt lat="43.68066" lon="0.97789">
        <ele>159.2</ele>
        <time>2017-08-06T13:23:13Z</time>
      </trkpt>
      <trkpt lat="43.68074" lon="0.97797">
        <ele>159.3</ele>
        <time>2017-08-06T13:23:20Z</time>
      </trkpt>
      <trkpt lat="43.68082" lon="0.97803">
        <ele>159.5</ele>
        <time>2017-08-06T13:23:28Z</time>
      </trkpt>
      <trkpt lat="43.68091" lon="0.9781">
        <ele>159.4</ele>
        <time>2017-08-06T13:24:30Z</time>
      </trkpt>
      <trkpt lat="43.68096" lon="0.97821">
        <ele>159.4</ele>
        <time>2017-08-06T13:24:38Z</time>
      </trkpt>
      <trkpt lat="43.68098" lon="0.97835">
        <ele>159.5</ele>
        <time>2017-08-06T13:24:46Z</time>
      </trkpt>
      <trkpt lat="43.68097" lon="0.97849">
        <ele>159.6</ele>
        <time>2017-08-06T13:24:54Z</time>
      </trkpt>
      <trkpt lat="43.68096" lon="0.97864">
        <ele>159.8</ele>
        <time>2017-08-06T13:25:02Z</time>
      </trkpt>
      <trkpt lat="43.68097" lon="0.97878">
        <ele>160.1</ele>
        <time>2017-08-06T13:25:10Z</time>
      </trkpt>
      <trkpt lat="43.68096" lon="0.97893">
        <ele>160.4</ele>
        <time>2017-08-06T13:25:18Z</time>
      </trkpt>
      <trkpt lat="43.68098" lon="0.97906">
        <ele>160.7</ele>
        <time>2017-08-06T13:25:26Z</time>
      </trkpt>
      <trkpt lat="43.68101" lon="0.97919">
        <ele>160.9</ele>
        <time>2017-08-06T13:25:34Z</time>
      </trkpt>
      <trkpt lat="43.68103" lon="0.97933">
        <ele>161.3</ele>
        <time>2017-08-06T13:25:42Z</time>
      </trkpt>
      <trkpt lat="43.68106" lon="0.97944">
        <ele>162.1</ele>
        <time>2017-08-06T13:26:10Z</time>
      </trkpt>
      <trkpt lat="43.68107" lon="0.9795">
        <ele>162.6</ele>
        <time>2017-08-06T13:26:45Z</time>
      </trkpt>
      <trkpt lat="43.68115" lon="0.97956">
        <ele>162.7</ele>
        <time>2017-08-06T13:27:11Z</time>
      </trkpt>
      <trkpt lat="43.68124" lon="0.97958">
        <ele>163.4</ele>
        <time>2017-08-06T13:27:38Z</time>
      </trkpt>
      <trkpt lat="43.68133" lon="0.97964">
        <ele>163.7</ele>
        <time>2017-08-06T13:27:47Z</time>
      </trkpt>
      <trkpt lat="43.68142" lon="0.97971">
        <ele>164.5</ele>
        <time>2017-08-06T13:27:57Z</time>
      </trkpt>
      <trkpt lat="43.6815" lon="0.9798">
        <ele>165.2</ele>
        <time>2017-08-06T13:28:07Z</time>
      </trkpt>
      <trkpt lat="43.68157" lon="0.97988">
        <ele>166.1</ele>
        <time>2017-08-06T13:28:20Z</time>
      </trkpt>
      <trkpt lat="43.68165" lon="0.97997">
        <ele>167</ele>
        <time>2017-08-06T13:28:32Z</time>
      </trkpt>
      <trkpt lat="43.68173" lon="0.98005">
        <ele>168.3</ele>
        <time>2017-08-06T13:28:43Z</time>
      </trkpt>
      <trkpt lat="43.68181" lon="0.98014">
        <ele>170.3</ele>
        <time>2017-08-06T13:28:54Z</time>
      </trkpt>
      <trkpt lat="43.68187" lon="0.98023">
        <ele>171.9</ele>
        <time>2017-08-06T13:29:07Z</time>
      </trkpt>
      <trkpt lat="43.68196" lon="0.98032">
        <ele>174</ele>
        <time>2017-08-06T13:29:20Z</time>
      </trkpt>
      <trkpt lat="43.68203" lon="0.98043">
        <ele>175.8</ele>
        <time>2017-08-06T13:29:33Z</time>
      </trkpt>
      <trkpt lat="43.68211" lon="0.98052">
        <ele>177.5</ele>
        <time>2017-08-06T13:29:44Z</time>
      </trkpt>
      <trkpt lat="43.68218" lon="0.98059">
        <ele>178.8</ele>
        <time>2017-08-06T13:29:55Z</time>
      </trkpt>
      <trkpt lat="43.68225" lon="0.98069">
        <ele>180.6</ele>
        <time>2017-08-06T13:30:11Z</time>
      </trkpt>
      <trkpt lat="43.68234" lon="0.98077">
        <ele>181.9</ele>
        <time>2017-08-06T13:30:22Z</time>
      </trkpt>
      <trkpt lat="43.68242" lon="0.98085">
        <ele>183</ele>
        <time>2017-08-06T13:30:32Z</time>
      </trkpt>
      <trkpt lat="43.68249" lon="0.98094">
        <ele>184.7</ele>
        <time>2017-08-06T13:30:43Z</time>
      </trkpt>
      <trkpt lat="43.68256" lon="0.98099">
        <ele>186</ele>
        <time>2017-08-06T13:31:32Z</time>
      </trkpt>
      <trkpt lat="43.68264" lon="0.98108">
        <ele>185.3</ele>
        <time>2017-08-06T13:31:49Z</time>
      </trkpt>
      <trkpt lat="43.68272" lon="0.98118">
        <ele>184.9</ele>
        <time>2017-08-06T13:31:58Z</time>
      </trkpt>
      <trkpt lat="43.68279" lon="0.98128">
        <ele>184.8</ele>
        <time>2017-08-06T13:32:08Z</time>
      </trkpt>
      <trkpt lat="43.68285" lon="0.98136">
        <ele>184.4</ele>
        <time>2017-08-06T13:32:16Z</time>
      </trkpt>
      <trkpt lat="43.68293" lon="0.98145">
        <ele>183.9</ele>
        <time>2017-08-06T13:32:25Z</time>
      </trkpt>
      <trkpt lat="43.683" lon="0.98155">
        <ele>183.8</ele>
        <time>2017-08-06T13:32:33Z</time>
      </trkpt>
      <trkpt lat="43.68308" lon="0.98164">
        <ele>183.6</ele>
        <time>2017-08-06T13:32:42Z</time>
      </trkpt>
      <trkpt lat="43.68315" lon="0.98174">
        <ele>183</ele>
        <time>2017-08-06T13:32:51Z</time>
      </trkpt>
      <trkpt lat="43.68321" lon="0.98183">
        <ele>182.9</ele>
        <time>2017-08-06T13:33:00Z</time>
      </trkpt>
      <trkpt lat="43.68328" lon="0.98193">
        <ele>182.7</ele>
        <time>2017-08-06T13:33:09Z</time>
      </trkpt>
      <trkpt lat="43.68335" lon="0.98202">
        <ele>182.6</ele>
        <time>2017-08-06T13:33:17Z</time>
      </trkpt>
      <trkpt lat="43.6834" lon="0.98211">
        <ele>182.3</ele>
        <time>2017-08-06T13:33:25Z</time>
      </trkpt>
      <trkpt lat="43.68348" lon="0.98221">
        <ele>182.1</ele>
        <time>2017-08-06T13:33:34Z</time>
      </trkpt>
      <trkpt lat="43.68355" lon="0.98231">
        <ele>181.8</ele>
        <time>2017-08-06T13:33:43Z</time>
      </trkpt>
      <trkpt lat="43.68361" lon="0.98239">
        <ele>181.8</ele>
        <time>2017-08-06T13:33:51Z</time>
      </trkpt>
      <trkpt lat="43.68369" lon="0.98247">
        <ele>181.8</ele>
        <time>2017-08-06T13:33:59Z</time>
      </trkpt>
      <trkpt lat="43.68376" lon="0.98256">
        <ele>181.6</ele>
        <time>2017-08-06T13:34:07Z</time>
      </trkpt>
      <trkpt lat="43.68384" lon="0.98266">
        <ele>181.1</ele>
        <time>2017-08-06T13:34:15Z</time>
      </trkpt>
      <trkpt lat="43.68392" lon="0.98274">
        <ele>180.9</ele>
        <time>2017-08-06T13:34:23Z</time>
      </trkpt>
      <trkpt lat="43.68398" lon="0.98283">
        <ele>180.7</ele>
        <time>2017-08-06T13:34:31Z</time>
      </trkpt>
      <trkpt lat="43.68406" lon="0.98293">
        <ele>180.5</ele>
        <time>2017-08-06T13:34:39Z</time>
      </trkpt>
      <trkpt lat="43.68413" lon="0.98302">
        <ele>180.3</ele>
        <time>2017-08-06T13:34:47Z</time>
      </trkpt>
      <trkpt lat="43.6842" lon="0.98312">
        <ele>179.5</ele>
        <time>2017-08-06T13:34:55Z</time>
      </trkpt>
      <trkpt lat="43.68428" lon="0.98321">
        <ele>179.1</ele>
        <time>2017-08-06T13:35:03Z</time>
      </trkpt>
      <trkpt lat="43.68435" lon="0.98331">
        <ele>178.6</ele>
        <time>2017-08-06T13:35:11Z</time>
      </trkpt>
      <trkpt lat="43.68442" lon="0.98339">
        <ele>178.2</ele>
        <time>2017-08-06T13:35:18Z</time>
      </trkpt>
      <trkpt lat="43.68448" lon="0.98349">
        <ele>177.7</ele>
        <time>2017-08-06T13:35:26Z</time>
      </trkpt>
      <trkpt lat="43.68456" lon="0.9836">
        <ele>177.5</ele>
        <time>2017-08-06T13:35:34Z</time>
      </trkpt>
      <trkpt lat="43.68462" lon="0.9837">
        <ele>177</ele>
        <time>2017-08-06T13:35:42Z</time>
      </trkpt>
      <trkpt lat="43.68469" lon="0.98381">
        <ele>176.6</ele>
        <time>2017-08-06T13:35:50Z</time>
      </trkpt>
      <trkpt lat="43.68475" lon="0.98392">
        <ele>176.9</ele>
        <time>2017-08-06T13:35:58Z</time>
      </trkpt>
      <trkpt lat="43.68481" lon="0.98403">
        <ele>177</ele>
        <time>2017-08-06T13:36:05Z</time>
      </trkpt>
      <trkpt lat="43.68483" lon="0.98412">
        <ele>177.1</ele>
        <time>2017-08-06T13:36:31Z</time>
      </trkpt>
      <trkpt lat="43.68487" lon="0.98424">
        <ele>176.7</ele>
        <time>2017-08-06T13:36:40Z</time>
      </trkpt>
      <trkpt lat="43.68489" lon="0.98438">
        <ele>177</ele>
        <time>2017-08-06T13:36:49Z</time>
      </trkpt>
      <trkpt lat="43.68488" lon="0.9845">
        <ele>177.3</ele>
        <time>2017-08-06T13:37:06Z</time>
      </trkpt>
      <trkpt lat="43.68487" lon="0.98462">
        <ele>177.6</ele>
        <time>2017-08-06T13:37:15Z</time>
      </trkpt>
      <trkpt lat="43.68486" lon="0.98476">
        <ele>177.9</ele>
        <time>2017-08-06T13:37:24Z</time>
      </trkpt>
      <trkpt lat="43.68483" lon="0.98489">
        <ele>178.6</ele>
        <time>2017-08-06T13:37:33Z</time>
      </trkpt>
      <trkpt lat="43.6848" lon="0.98503">
        <ele>179.4</ele>
        <time>2017-08-06T13:37:43Z</time>
      </trkpt>
      <trkpt lat="43.68478" lon="0.98515">
        <ele>179.8</ele>
        <time>2017-08-06T13:37:52Z</time>
      </trkpt>
      <trkpt lat="43.68476" lon="0.98529">
        <ele>180.2</ele>
        <time>2017-08-06T13:38:01Z</time>
      </trkpt>
      <trkpt lat="43.68474" lon="0.98542">
        <ele>180.7</ele>
        <time>2017-08-06T13:38:10Z</time>
      </trkpt>
      <trkpt lat="43.68475" lon="0.98555">
        <ele>181.4</ele>
        <time>2017-08-06T13:38:19Z</time>
      </trkpt>
      <trkpt lat="43.68481" lon="0.98567">
        <ele>181.8</ele>
        <time>2017-08-06T13:38:28Z</time>
      </trkpt>
      <trkpt lat="43.68489" lon="0.98575">
        <ele>182.3</ele>
        <time>2017-08-06T13:38:37Z</time>
      </trkpt>
      <trkpt lat="43.68496" lon="0.98582">
        <ele>182.9</ele>
        <time>2017-08-06T13:38:45Z</time>
      </trkpt>
      <trkpt lat="43.68504" lon="0.98588">
        <ele>183.6</ele>
        <time>2017-08-06T13:38:53Z</time>
      </trkpt>
      <trkpt lat="43.68511" lon="0.98595">
        <ele>184.1</ele>
        <time>2017-08-06T13:39:01Z</time>
      </trkpt>
      <trkpt lat="43.6852" lon="0.98603">
        <ele>184.5</ele>
        <time>2017-08-06T13:39:10Z</time>
      </trkpt>
      <trkpt lat="43.68528" lon="0.9861">
        <ele>185.2</ele>
        <time>2017-08-06T13:39:18Z</time>
      </trkpt>
      <trkpt lat="43.68537" lon="0.98618">
        <ele>186.2</ele>
        <time>2017-08-06T13:39:27Z</time>
      </trkpt>
      <trkpt lat="43.68545" lon="0.98625">
        <ele>186.7</ele>
        <time>2017-08-06T13:39:36Z</time>
      </trkpt>
      <trkpt lat="43.68555" lon="0.98633">
        <ele>187.5</ele>
        <time>2017-08-06T13:39:47Z</time>
      </trkpt>
      <trkpt lat="43.68563" lon="0.98641">
        <ele>188.3</ele>
        <time>2017-08-06T13:39:56Z</time>
      </trkpt>
      <trkpt lat="43.68571" lon="0.9865">
        <ele>189.6</ele>
        <time>2017-08-06T13:40:06Z</time>
      </trkpt>
      <trkpt lat="43.68578" lon="0.9866">
        <ele>190.9</ele>
        <time>2017-08-06T13:40:15Z</time>
      </trkpt>
      <trkpt lat="43.6858" lon="0.98671">
        <ele>192.6</ele>
        <time>2017-08-06T13:40:35Z</time>
      </trkpt>
      <trkpt lat="43.68576" lon="0.98684">
        <ele>192.8</ele>
        <time>2017-08-06T13:40:45Z</time>
      </trkpt>
      <trkpt lat="43.68571" lon="0.98696">
        <ele>193</ele>
        <time>2017-08-06T13:40:54Z</time>
      </trkpt>
      <trkpt lat="43.68566" lon="0.98708">
        <ele>193.1</ele>
        <time>2017-08-06T13:41:03Z</time>
      </trkpt>
      <trkpt lat="43.6856" lon="0.98719">
        <ele>193.3</ele>
        <time>2017-08-06T13:41:13Z</time>
      </trkpt>
      <trkpt lat="43.68554" lon="0.98731">
        <ele>193.7</ele>
        <time>2017-08-06T13:41:23Z</time>
      </trkpt>
      <trkpt lat="43.68545" lon="0.98743">
        <ele>193.8</ele>
        <time>2017-08-06T13:41:35Z</time>
      </trkpt>
      <trkpt lat="43.68538" lon="0.98756">
        <ele>194</ele>
        <time>2017-08-06T13:41:44Z</time>
      </trkpt>
      <trkpt lat="43.68531" lon="0.98769">
        <ele>194.3</ele>
        <time>2017-08-06T13:41:54Z</time>
      </trkpt>
      <trkpt lat="43.68527" lon="0.98782">
        <ele>194.7</ele>
        <time>2017-08-06T13:42:02Z</time>
      </trkpt>
      <trkpt lat="43.68522" lon="0.98793">
        <ele>195</ele>
        <time>2017-08-06T13:42:11Z</time>
      </trkpt>
      <trkpt lat="43.68517" lon="0.98806">
        <ele>195.2</ele>
        <time>2017-08-06T13:42:19Z</time>
      </trkpt>
      <trkpt lat="43.68512" lon="0.98818">
        <ele>195.4</ele>
        <time>2017-08-06T13:42:28Z</time>
      </trkpt>
      <trkpt lat="43.68507" lon="0.98831">
        <ele>195.6</ele>
        <time>2017-08-06T13:42:37Z</time>
      </trkpt>
      <trkpt lat="43.68502" lon="0.98844">
        <ele>196.1</ele>
        <time>2017-08-06T13:42:46Z</time>
      </trkpt>
      <trkpt lat="43.68497" lon="0.98857">
        <ele>196.5</ele>
        <time>2017-08-06T13:42:55Z</time>
      </trkpt>
      <trkpt lat="43.68492" lon="0.98871">
        <ele>196.9</ele>
        <time>2017-08-06T13:43:04Z</time>
      </trkpt>
      <trkpt lat="43.68486" lon="0.98883">
        <ele>197.1</ele>
        <time>2017-08-06T13:43:11Z</time>
      </trkpt>
      <trkpt lat="43.68481" lon="0.98895">
        <ele>197.2</ele>
        <time>2017-08-06T13:43:20Z</time>
      </trkpt>
      <trkpt lat="43.68475" lon="0.98907">
        <ele>197.6</ele>
        <time>2017-08-06T13:43:29Z</time>
      </trkpt>
      <trkpt lat="43.6847" lon="0.9892">
        <ele>197.6</ele>
        <time>2017-08-06T13:43:37Z</time>
      </trkpt>
      <trkpt lat="43.68464" lon="0.98931">
        <ele>197.9</ele>
        <time>2017-08-06T13:43:47Z</time>
      </trkpt>
      <trkpt lat="43.68459" lon="0.98944">
        <ele>198.1</ele>
        <time>2017-08-06T13:43:58Z</time>
      </trkpt>
      <trkpt lat="43.68454" lon="0.98958">
        <ele>198.5</ele>
        <time>2017-08-06T13:44:08Z</time>
      </trkpt>
      <trkpt lat="43.68448" lon="0.98973">
        <ele>198.7</ele>
        <time>2017-08-06T13:44:21Z</time>
      </trkpt>
      <trkpt lat="43.68441" lon="0.98988">
        <ele>199</ele>
        <time>2017-08-06T13:44:31Z</time>
      </trkpt>
      <trkpt lat="43.68436" lon="0.99003">
        <ele>199.1</ele>
        <time>2017-08-06T13:44:40Z</time>
      </trkpt>
      <trkpt lat="43.68431" lon="0.99015">
        <ele>199.4</ele>
        <time>2017-08-06T13:44:49Z</time>
      </trkpt>
      <trkpt lat="43.68425" lon="0.99031">
        <ele>199.6</ele>
        <time>2017-08-06T13:44:58Z</time>
      </trkpt>
      <trkpt lat="43.68419" lon="0.99043">
        <ele>199.6</ele>
        <time>2017-08-06T13:45:06Z</time>
      </trkpt>
      <trkpt lat="43.68413" lon="0.99055">
        <ele>199.7</ele>
        <time>2017-08-06T13:45:15Z</time>
      </trkpt>
      <trkpt lat="43.68408" lon="0.9907">
        <ele>200</ele>
        <time>2017-08-06T13:45:27Z</time>
      </trkpt>
      <trkpt lat="43.684" lon="0.99083">
        <ele>200.1</ele>
        <time>2017-08-06T13:45:36Z</time>
      </trkpt>
      <trkpt lat="43.68394" lon="0.99095">
        <ele>200.4</ele>
        <time>2017-08-06T13:45:52Z</time>
      </trkpt>
      <trkpt lat="43.68388" lon="0.99106">
        <ele>200.5</ele>
        <time>2017-08-06T13:46:02Z</time>
      </trkpt>
      <trkpt lat="43.68383" lon="0.99116">
        <ele>200.6</ele>
        <time>2017-08-06T13:46:11Z</time>
      </trkpt>
      <trkpt lat="43.68376" lon="0.99127">
        <ele>200.7</ele>
        <time>2017-08-06T13:46:21Z</time>
      </trkpt>
      <trkpt lat="43.68371" lon="0.9914">
        <ele>200.9</ele>
        <time>2017-08-06T13:46:30Z</time>
      </trkpt>
      <trkpt lat="43.68363" lon="0.99151">
        <ele>200.8</ele>
        <time>2017-08-06T13:46:42Z</time>
      </trkpt>
      <trkpt lat="43.68354" lon="0.99174">
        <ele>201.4</ele>
        <time>2017-08-06T13:47:37Z</time>
      </trkpt>
      <trkpt lat="43.68348" lon="0.99184">
        <ele>201.3</ele>
        <time>2017-08-06T13:47:49Z</time>
      </trkpt>
      <trkpt lat="43.6834" lon="0.99198">
        <ele>201</ele>
        <time>2017-08-06T13:48:04Z</time>
      </trkpt>
      <trkpt lat="43.68331" lon="0.99213">
        <ele>200.9</ele>
        <time>2017-08-06T13:48:17Z</time>
      </trkpt>
      <trkpt lat="43.68324" lon="0.99228">
        <ele>201.2</ele>
        <time>2017-08-06T13:48:28Z</time>
      </trkpt>
      <trkpt lat="43.68317" lon="0.99241">
        <ele>201.3</ele>
        <time>2017-08-06T13:48:39Z</time>
      </trkpt>
      <trkpt lat="43.6831" lon="0.99253">
        <ele>201.3</ele>
        <time>2017-08-06T13:48:50Z</time>
      </trkpt>
      <trkpt lat="43.68304" lon="0.99264">
        <ele>201.2</ele>
        <time>2017-08-06T13:48:59Z</time>
      </trkpt>
      <trkpt lat="43.68297" lon="0.99277">
        <ele>201.5</ele>
        <time>2017-08-06T13:49:09Z</time>
      </trkpt>
      <trkpt lat="43.6829" lon="0.99292">
        <ele>201.6</ele>
        <time>2017-08-06T13:49:19Z</time>
      </trkpt>
      <trkpt lat="43.68284" lon="0.99305">
        <ele>201.9</ele>
        <time>2017-08-06T13:49:29Z</time>
      </trkpt>
      <trkpt lat="43.68277" lon="0.99317">
        <ele>202.2</ele>
        <time>2017-08-06T13:49:40Z</time>
      </trkpt>
      <trkpt lat="43.6827" lon="0.99331">
        <ele>202.6</ele>
        <time>2017-08-06T13:49:52Z</time>
      </trkpt>
      <trkpt lat="43.68262" lon="0.99343">
        <ele>202.9</ele>
        <time>2017-08-06T13:50:03Z</time>
      </trkpt>
      <trkpt lat="43.68256" lon="0.99355">
        <ele>203</ele>
        <time>2017-08-06T13:50:17Z</time>
      </trkpt>
      <trkpt lat="43.68252" lon="0.99366">
        <ele>203.6</ele>
        <time>2017-08-06T13:50:42Z</time>
      </trkpt>
    </trkseg>
  </trk>
</gpx>